İHALESİ DEVAM EDEN HASARLI ARAÇLARIN LİSTESİ

Aşağıda sınırlı sayıda hasarlı araçlar listelenmektedir.
İhaledeki tüm araçları görüp almak istediğiniz araca teklif vermeniz için aşağıda yazılı hesaplarımızdan birine 20.000 TL teminat yatırmanız gerekmektedir.
Teminat yatırdıktan sonra araçlar teklif vermeye başlayabilirsiniz. Araç kaldıktan sonra aracın rakamına göre kapora almaktayız. Ödeme geldiğinde kaporanızı ödeyeceğiniz miktardan düşüyoruz. İsterseniz yatırdığınız teminatınızı da aldığınız araçtan düşebilirsiniz ya da teminatınız durur araç almaya devam edersiniz.
Ödeme yapılacak veya bekleyen araçlar menüsünde aracınız yoksa teminatınızı geri çekebilirsiniz.
Aldığınız aracı ödemezseniz teminatınız yanar.

 #

Model

Aracın Markası Aracın Tipi Bulunduğu Şehir Kapanış Tarihi Asgari Fiyat
1 2015 Motorsiklet HONDA CBF 150 SH Malatya 7.9.2026 10:00 250 TL
2 2020 Motorsiklet FALCON ATTACK 100 Mersin 7.9.2026 10:00 250 TL
3 2016 Hyundai ACCENT BLUE 1.4 D-CVVT MODE PLUS Samsun 7.9.2026 10:00 250 TL
4 2022 Motorsiklet KUBA BLUEBERRY 50 İstanbul 7.9.2026 10:00 250 TL
5 2023 Motorsiklet VOLTA VS1 Ankara 7.9.2026 10:00 250 TL
6 2025 Motorsiklet CSN MOTOR BEAUTY 50 Kütahya 7.9.2026 10:00 250 TL
7 2021 Motorsiklet ARORA CAPIROSSI 50 Uşak 7.9.2026 10:00 250 TL
8 2021 Motorsiklet MONDIAL WİNG 50 İstanbul 7.9.2026 10:00 250 TL
9 2023 Motorsiklet RKS SPONTINI 110 (GST110T-14) Bursa 7.9.2026 10:00 250 TL
10 2024 Motorsiklet ALTAI CARRIER 110 PRO İstanbul 7.9.2026 10:00 250 TL
11 2023 Motorsiklet MONDIAL AİRTİME 50CC Isparta 7.9.2026 10:00 250 TL
12 2021 Motorsiklet REVOLT RM5 X MAXI SCOOTER İzmir 7.9.2026 10:00 250 TL
13 2023 Motorsiklet MONDIAL 50 wing Denizli 7.9.2026 10:00 250 TL
14 1993 Motorsiklet HONDA KINETIC Kilis 7.9.2026 10:00 250 TL
15 2024 Motorsiklet MONDIAL EXON 50 Ankara 7.9.2026 10:00 250 TL
16 2022 Motorsiklet TVS WEGO 110 FI Adana 7.9.2026 10:30 500 TL
17 2018 Motorsiklet RKS WINNER 200 Sakarya 7.9.2026 10:30 750 TL
18 2024 Motorsiklet ABUSH SPEEDY 110i Siirt 7.9.2026 10:30 500 TL
19 2022 Motorsiklet MONDIAL 125 DRİFT L İzmir 7.9.2026 10:30 500 TL
20 1989 Opel KADETT GL 1.3 İzmir 7.9.2026 10:30 500 TL
21 2024 Motorsiklet MONDIAL ELEGANTE 125 Eskişehir 7.9.2026 10:30 250 TL
22 2023 Motorsiklet HONDA CB 125 Kocaeli 7.9.2026 10:30 750 TL
23 2024 Motorsiklet ARORA AR 06 Samsun 7.9.2026 10:30 750 TL
24 2025 Motorsiklet TVS JUPITER 125 Adana 7.9.2026 10:30 500 TL
25 2024 Motorsiklet MUSATTI GLAMARO MAX 125 İstanbul 7.9.2026 10:30 500 TL
26 2023 Motorsiklet RKS SPONTINI 110 (GST110T-14) İstanbul 7.9.2026 10:30 500 TL
27 2024 Motorsiklet FALCON SALVADOR 188 Çorum 7.9.2026 10:30 750 TL
28 2024 Motorsiklet MONDIAL 125 DRIFT L CBS Kayseri 7.9.2026 10:30 500 TL
29 2014 Motorsiklet MONDIAL 100 SUPERBOY i İstanbul 7.9.2026 10:30 250 TL
30 2024 Motorsiklet APEC PS3 50 Ankara 7.9.2026 10:30 500 TL
31 2018 Motorsiklet HONDA ACTIVA S (NSC125) İstanbul 7.9.2026 11:00 1.000 TL
32 2023 Motorsiklet MONDIAL WİNG 50 Aydın 7.9.2026 11:00 1.000 TL
33 2022 Motorsiklet MOTOLUX CEO 110 Gaziantep 7.9.2026 11:00 1.000 TL
34 1991 Toyota CORONA GL Antalya 7.9.2026 11:00 1.500 TL
35 2025 Hyundai BAYON 1.0T ELITE DCT İzmir 7.9.2026 11:00 2.000 TL
36 2025 Motorsiklet MONDIAL 125 DRİFT L Kocaeli 7.9.2026 11:00 1.000 TL
37 1988 Renault 12 TSW Karabük 7.9.2026 11:00 1.500 TL
38 1990 Renault TOROS Tekirdağ 7.9.2026 11:00 1.500 TL
39 2020 Motorsiklet HONDA ACTIVA S (NSC125) İstanbul 7.9.2026 11:00 1.500 TL
40 1994 Fiat/Tofaş SAHİN 1.6 Antalya 7.9.2026 11:00 1.000 TL
41 1994 Renault SPRING İstanbul 7.9.2026 11:00 1.000 TL
42 2023 Motorsiklet KUBA EGE 50 Adana 7.9.2026 11:00 2.000 TL
43 2023 Motorsiklet MONDİAL STRADA 125 Muğla 7.9.2026 11:00 1.500 TL
44 1996 Fiat/Tofaş TİPO 1.6 SLX Manisa 7.9.2026 11:00 1.500 TL
45 2018 Motorsiklet LIFAN DISCOVERY 150 (LF150-9J) Isparta 7.9.2026 11:00 1.000 TL
46 2025 Motorsiklet KUBA SPACEMAX 50 İstanbul 7.9.2026 11:30 3.000 TL
47 2025 Motorsiklet RKS VRS125 Ankara 7.9.2026 11:30 3.500 TL
48 2024 Motorsiklet MONDIAL 125 DRİFT L Ankara 7.9.2026 11:30 3.000 TL
49 2025 Motorsiklet KUBA NEWCITY 50 İstanbul 7.9.2026 11:30 3.000 TL
50 1992 Opel VECTRA 2.0 GL Kütahya 7.9.2026 11:30 3.000 TL
51 2024 Motorsiklet CFMOTO 250 SR İzmir 7.9.2026 11:30 3.000 TL
52 2024 Motorsiklet CFMOTO 250 SR Diyarbakır 7.9.2026 11:30 3.000 TL
53 1993 Fiat/Tofaş KARTAL 1.6 İzmir 7.9.2026 11:30 3.000 TL
54 2025 Motorsiklet CFMOTO 250 NK Ankara 7.9.2026 11:30 4.500 TL
55 2024 Motorsiklet YUKI TARO GP2 Konya 7.9.2026 11:30 2.500 TL
56 1986 Fiat/Tofaş DOĞAN Ankara 7.9.2026 11:30 3.000 TL
57 2020 Fiat/Tofaş EGEA SEDAN URBAN PLUS 1.4 FIRE 95 E6D Muş 7.9.2026 11:30 2.000 TL
58 2023 Motorsiklet RKS SPONTINI 125 İstanbul 7.9.2026 11:30 2.000 TL
59 2024 Motorsiklet ARORA MT 125 Ankara 7.9.2026 11:30 3.000 TL
60 2025 Motorsiklet MONDIAL SFC 50 Kahramanmaraş 7.9.2026 11:30 2.500 TL
61 2023 Motorsiklet RKS SPONTINI 110 İstanbul 7.9.2026 12:00 9.000 TL
62 2023 Motorsiklet KUBA VN50 PRO İzmir 7.9.2026 12:00 9.000 TL
63 2021 Motorsiklet MOTOLUX CEO 110 İstanbul 7.9.2026 12:00 7.000 TL
64 1993 Fiat/Tofaş DOGAN SL İstanbul 7.9.2026 12:00 9.000 TL
65 2025 Motorsiklet MONDIAL 125 DRİFT L Samsun 7.9.2026 12:00 5.500 TL
66 2023 Motorsiklet HONDA ACTİVA 125 Bursa 7.9.2026 12:00 7.500 TL
67 1996 Fiat/Tofaş SAHİN Konya 7.9.2026 12:00 7.000 TL
68 2024 Motorsiklet RKS RZ250S İstanbul 7.9.2026 12:00 7.000 TL
69 2024 Motorsiklet HONDA PCX 125 İstanbul 7.9.2026 12:00 9.000 TL
70 1993 Renault 12 TOROS SEDAN Elazığ 7.9.2026 12:00 6.000 TL
71 2018 Motorsiklet HONDA PCX 125 Bursa 7.9.2026 12:00 6.000 TL
72 2025 Motorsiklet MONDIAL 125 DRIFT L CBS İzmir 7.9.2026 12:00 5.500 TL
73 2024 Motorsiklet SKYJET RIVERO 125 İstanbul 7.9.2026 12:00 7.500 TL
74 2009 Dacia LOGAN AMBIANCE 1.4 Muş 7.9.2026 12:00 9.500 TL
75 1998 Fiat/Tofaş SAHIN 1.4 İstanbul 7.9.2026 12:00 9.000 TL
76 1992 Fiat/Tofaş DOGAN 1.6 Sakarya 7.9.2026 13:30 28.000 TL
77 2023 Motorsiklet RKS NEWLIGHT 125 PRO İstanbul 7.9.2026 13:30 15.000 TL
78 2022 Motorsiklet YUKI T9 STORM 125 MAXI SCOOTER Bursa 7.9.2026 13:30 21.000 TL
79 2024 Motorsiklet MONDIAL 125 DRİFT L Kayseri 7.9.2026 13:30 21.500 TL
80 2022 Motorsiklet KUBA EGE 50 İstanbul 7.9.2026 13:30 12.000 TL
81 2020 Motorsiklet HONDA PCX 125 İstanbul 7.9.2026 13:30 26.000 TL
82 2024 Motorsiklet CFMOTO 250 SR Bursa 7.9.2026 13:30 25.500 TL
83 2025 Motorsiklet CFMOTO 250 SR İstanbul 7.9.2026 13:30 35.000 TL
84 2025 Motorsiklet REVOLT RSX5 150 Düzce 7.9.2026 13:30 9.500 TL
85 2026 Motorsiklet ARORA MAX PRO Aydın 7.9.2026 13:30 11.500 TL
86 2026 Motorsiklet YUKI VOGE R125 İzmir 7.9.2026 13:30 12.500 TL
87 2024 Motorsiklet VOGE SR3 Adana 7.9.2026 13:30 12.500 TL
88 2004 Skoda OCTAVIA 1.6 AMBIENTE İstanbul 7.9.2026 13:30 11.500 TL
89 2017 Honda JAZZ 1.3 ELEGANCE CVT Çorum 7.9.2026 13:30 11.500 TL
90 2013 Renault KANGOO MULTIX TOUCH 1.5 DCI 90 E5 Ordu 7.9.2026 13:30 36.500 TL
91 1996 Fiat/Tofaş UNO SX İstanbul 7.9.2026 14:00 87.500 TL
92 2003 Peugeot 307 XT 1.6 Kastamonu 7.9.2026 14:00 97.000 TL
93 2005 Fiat/Tofaş PALIO 1.2 SL Samsun 7.9.2026 14:00 120.500 TL
94 1993 Fiat/Tofaş DOGAN SLX Mersin 7.9.2026 14:00 53.000 TL
95 2000 Renault 19 EUROPA 1.9 DIZEL Muğla 7.9.2026 14:00 81.000 TL
96 1998 Opel ASTRA 1.4i 16V GL SEDAN Ankara 7.9.2026 14:00 94.500 TL
97 2006 Hyundai ACCENT ERA 1.5 CRDi VGT TEAM (Y) İstanbul 7.9.2026 14:00 105.000 TL
98 2024 Motorsiklet BAJAJ PULSAR NS200 Muğla 7.9.2026 14:00 53.500 TL
99 2006 Fiat/Tofaş PALIO 1.3 MULTIJET ACTIVE Ankara 7.9.2026 14:00 91.000 TL
100 1996 Renault 19 EUROPA 1.6 RT Manisa 7.9.2026 14:00 67.000 TL
101 2001 Peugeot PARTNER 1.9D İstanbul 7.9.2026 14:00 52.500 TL
102 2005 Fiat/Tofaş PALIO 1.2 Konya 7.9.2026 14:00 54.500 TL
103 2000 Ford FOCUS 1.6i AMBIENTE SEDAN Ankara 7.9.2026 14:00 71.000 TL
104 2011 Renault FLUENCE BUSINESS 1.5 DCI (85) Gaziantep 7.9.2026 14:00 37.500 TL
105 2004 Volvo S40 1.6 Kastamonu 7.9.2026 14:00 73.500 TL
106 2008 Magirus SULTAN 145 S Muğla 7.9.2026 14:00 82.500 TL
107 2014 Motorsiklet YAMAHA XVS 950 CU Bursa 7.9.2026 14:30 212.000 TL
108 2006 Opel COMBO 1.3 CDTi CITY PLUS Malatya 7.9.2026 14:30 165.000 TL
109 2008 Isuzu OTOBUS ROYBUS 27 Antalya 7.9.2026 14:30 226.000 TL
110 2007 Citroen C5 SX 1.6 HDI Isparta 7.9.2026 14:30 178.000 TL
111 2024 Motorsiklet YAMAHA MT 125 ABS İstanbul 7.9.2026 14:30 130.500 TL
112 2015 Peugeot PARTNER TEEPE ZENITH 1.6 HDI Kocaeli 7.9.2026 14:30 246.000 TL
113 2011 Ford FIESTA TITANIUM 5K 1.4 TDCi Ankara 7.9.2026 14:30 188.500 TL
114 2006 Volkswagen PASSAT 2.0 TDI COMFORTLINE Gaziantep 7.9.2026 14:30 196.000 TL
115 1999 Volkswagen PASSAT 1.8 BASIC Afyonkarahisar 7.9.2026 14:30 133.000 TL
116 2025 Dfsk PORTER 1 1.6 İstanbul 7.9.2026 14:30 234.500 TL
117 2012 Ford T.CONNECT KOMBI K210S 1.8 TDCI 90 E5 İstanbul 7.9.2026 14:30 177.000 TL
118 2004 Volkswagen MULTIVAN 2.5 TDI COMFORTLINE (130) Ankara 7.9.2026 14:30 176.500 TL
119 2003 Peugeot 206 CC 1.6 İstanbul 7.9.2026 14:30 131.500 TL
120 2006 Renault CEKICI PREMIUM 420.19 4x2 Manisa 7.9.2026 14:30 192.000 TL
121 2016 Kia BONGO K2500 CIFT TEKER KASALI KAMYONET Ankara 7.9.2026 14:30 138.000 TL
122 2011 Ssangyong KYRON 4X4 Adana 7.9.2026 14:30 148.500 TL
123 2011 Ford FOCUS COMFORT 4K 1.6i (100) OV Ankara 7.9.2026 15:00 361.000 TL
124 2014 Fiat/Tofaş PUNTO 1.3 MULTIJET 75 POPSTAR Ankara 7.9.2026 15:00 336.000 TL
125 2020 Fiat/Tofaş DOBLO COMBI EASY 1.3 M.JET Ankara 7.9.2026 15:00 387.000 TL
126 2020 Fiat/Tofaş EGEA SEDAN EASY 1.3 M.JET 95 Ankara 7.9.2026 15:00 375.500 TL
127 2017 Fiat/Tofaş DOBLO COMBI 1.6 M.JET İstanbul 7.9.2026 15:15 255.500 TL
128 2025 Toyota COROLLA 1.5 SEDAN Muğla 7.9.2026 15:15 50.000 TL
129 2016 Audi A3 SPORTBACK 1.0 TFSI DYNAMIC İstanbul 7.9.2026 15:15 300.000 TL
130 2021 Renault CLIO 1.0 TCE Bursa 7.9.2026 15:15 1.000 TL
131 2018 Lada 4x4 2 KAPI URBAN 1.7 İzmir 7.9.2026 15:15 1.000 TL
132 2023 Opel CORSA 1.2 Ankara 7.9.2026 15:15 1.000 TL
133 2019 Toyota COROLLA 1.8 HYBRID Ankara 7.9.2026 15:15 1.000 TL
134 2014 Mercedes GL 350 BLUETEC Erzurum 7.9.2026 15:15 1.000 TL
135 2021 Mitsubishi L200 CIFT KABIN KAMYONET Konya 7.9.2026 15:15 1.000 TL
136 2014 Fiat/Tofaş DOBLO COMBI 1.3 M.JET Uşak 7.9.2026 15:15 1.000 TL
137 2012 Citroen BERLINGO COMBI 1.6 HDI Erzincan 7.9.2026 15:15 1.000 TL
138 2013 Dacia SANDERO STEPWAY 1.5 DCI İstanbul 7.9.2026 15:15 1.000 TL
139 2015 Ford TOURNEO COURIER KOMBI 1.6 TDCI Ankara 7.9.2026 15:15 1.000 TL
140 2023 Citroen C4 X 1.2 PURETECH Adana 7.9.2026 15:15 1.000 TL
141 2020 Man MINIBUS TGE 5.180 L416 S 16+1 İstanbul 7.9.2026 15:30 1.000 TL
142 2001 Opel CORSA 1.4i 16V COMFORT Kayseri 7.9.2026 15:30 1.000 TL
143 2023 Ford FOCUS TREND X 1.0 ECOBOOST Malatya 7.9.2026 15:30 1.000 TL
144 2023 Opel COMBO CARGO 1.5 DIZEL 102 ELEGANCE XL Erzurum 7.9.2026 15:30 1.000 TL
145 2012 Bmw F 700 GS Adana 7.9.2026 15:30 1.000 TL
146 2019 Renault CLIO HB ICON 1.5 DCI EDC 90 İzmir 7.9.2026 15:30 1.000 TL
147 2020 Ford TRANSIT OTOBUS 440E 19 1 170 DELUXE E6.2 Gaziantep 7.9.2026 15:30 1.000 TL
148 2024 Togg T10X V2 RWD UZUN MENZIL 160KW Denizli 7.9.2026 15:30 1.000 TL
149 2020 Audi A3 SEDAN 1.5 35 TFSI 150 DYNAMIC Şehir Seç 7.9.2026 15:30 1.000 TL
150 2024 Dorse/Römork AKÇAVUŞOĞLU YARI RÖMORK Diyarbakır 7.9.2026 15:30 1.000 TL
151 2017 Honda CIVIC SEDAN EXECUTIVE 1.6 (125) OV İstanbul 7.9.2026 15:30 1.000 TL
152 2022 Motorsiklet VS2 Aydın 7.9.2026 15:30 1.000 TL
153 2022 Renault CLIO JOY 1.0 TCE İzmir 7.9.2026 15:30 1.000 TL
154 2012 Bmw 320d SEDAN Ankara 7.9.2026 15:30 1.000 TL
155 2024 Renault TALIANT JOY 1.0 Adana 7.9.2026 15:30 1.000 TL
156 2026 Opel CORSA 1.2 HYBRID 136 E-DCT6 GS İstanbul 7.9.2026 15:30 1.000 TL
157 2005 Volkswagen GOLF 1.6 FSI C.LINE (115) 4 K. TIPTRONIC İzmir 7.9.2026 15:30 1.000 TL
158 2016 Honda CR-V 1.6 İstanbul 7.9.2026 15:30 1.000 TL
159 2025 Byd SEAL U EV Bursa 7.9.2026 15:30 1.000 TL
160 2010 Volkswagen CADDY KOMBI 1.9 TDI Diyarbakır 7.9.2026 15:30 1.000 TL
161 2024 Hyundai i20 FL 1.2 MPI 84 JUMP Kütahya 7.9.2026 15:30 1.000 TL
162 2022 Renault ZOE INTENSE 80 KW Z.E. 50 İzmir 7.9.2026 15:30 1.000 TL
163 2021 Bmw 320i SEDAN 1.6 170 SPORT LINE İstanbul 7.9.2026 15:30 1.000 TL
164 2011 Peugeot PARTNER TEPEE PREMUIM 1.6 HDI (92) Ankara 7.9.2026 15:30 1.000 TL
165 2012 Ford T.CONNECT K210 S 1.8 TDCi 90 Ankara 7.9.2026 15:30 1.000 TL
166 2010 Ford TRANSIT 430 ED MINIBUS 16+1 Batman 7.9.2026 15:30 1.000 TL
167 2005 Mercedes KAMYON AXOR 3028 Samsun 7.9.2026 15:30 1.000 TL
168 2021 Motorsiklet AR 50 CAPUCCINO İstanbul 7.9.2026 15:30 1.000 TL
169 2012 Man TGL 12 180 Denizli 7.9.2026 15:30 1.000 TL
170 2022 Mercedes E 200 D FL EXCLUSIVE Batman 7.9.2026 15:30 1.000 TL
171 1992 Renault 21 MANAGER İstanbul 7.9.2026 15:30 1.000 TL
172 2024 Opel MOKKA 1.2 Elazığ 7.9.2026 15:30 1.000 TL
173 2000 Renault KANGOO 1.4 RTE İzmir 7.9.2026 15:30 1.000 TL
174 2007 Volkswagen C.VOLT 2.5 TDI (109) LWB 16+1 KONFOR OK Isparta 7.9.2026 15:30 1.000 TL
175 2016 Citroen C-ELYSEE 1.6 HDI 92 EXCLUSIVE Adana 7.9.2026 15:30 1.000 TL
176 2010 Mercedes CEKICI AXOR 1840 LS 4X2 Batman 7.9.2026 15:30 1.000 TL
177 2021 Fiat/Tofaş EGEA CROSS URBAN 1.4 FIRE 95 E6D Mersin 7.9.2026 15:30 1.000 TL
178 2020 Honda PCX 125 Ankara 7.9.2026 15:30 1.000 TL
179 2016 Renault CLIO 1,5 DCİ Bursa 7.9.2026 15:30 1.000 TL
180 2024 Motorsiklet BLACK WOLF 250 İstanbul 7.9.2026 15:30 1.000 TL
181 2019 Motorsiklet X-MAX 250 ABS İstanbul 7.9.2026 15:30 1.000 TL
182 2016 Kia CERATO CONCEPT PLUS 1.6 DIZEL 136 DCT İstanbul 7.9.2026 15:30 1.000 TL
183 2024 Peugeot PM-02 250 Antalya 7.9.2026 15:30 1.000 TL
184 2022 Ford TRANSIT COURIER 1.5 TDCI 75 E6.2 TREND İstanbul 7.9.2026 15:30 1.000 TL
185 2022 Renault CEKICI T 480 4x2T XLOW E6 1100 İstanbul 7.9.2026 15:30 1.000 TL
186 2026 Honda PCX 125 Eskişehir 7.9.2026 15:30 1.000 TL
187 2013 Ford T.CONNECT COMBI 1.8 TDCi Şehir Seç 7.9.2026 15:30 1.000 TL
188 2026 Suzuki VITARA MILD HYBRID 1.4 129 GL ELEGANCE 4x2 AT Sakarya 7.9.2026 15:30 1.000 TL
189 2017 Honda SPACY ALPHA Balıkesir 7.9.2026 15:30 1.000 TL
190 2011 Opel ASTRA HB SPORT 1.3 CDTI Kocaeli 7.9.2026 15:30 1.000 TL
191 2025 Hyundai BAYON FL 1.0 T-GDI 100 STYLE DCT Zonguldak 7.9.2026 15:30 1.000 TL
192 2023 Motorsiklet AR CAPUCCINO 50 İstanbul 7.9.2026 15:30 1.000 TL
193 2012 Fiat/Tofaş LINEA POP 1.3 MULTIJET 95 İstanbul 7.9.2026 15:30 1.000 TL
194 2017 Peugeot 208 ACTIVE 1.2 PURETECH 82 ETG5 S&S FL Ankara 7.9.2026 15:30 1.000 TL
195 2020 Citroen C3 1.2 PURETECH 110 İstanbul 7.9.2026 15:30 1.000 TL
196 2011 Fiat/Tofaş ALBEA SOLE 1.3 MULTIJET ACTIVE Gümüşhane 7.9.2026 15:30 1.000 TL
197 2015 Dacia LOGAN MCV 1,5 DCİ Niğde 7.9.2026 15:30 1.000 TL
198 2011 Chevrolet AVEO NB 1.4 16V SE OV Ankara 7.9.2026 15:30 1.000 TL
199 1997 Fiat/Tofaş DOGAN SLX 1,6 i.e. Ordu 7.9.2026 15:30 1.000 TL
200 2005 Dorse/Römork FRIGOFRIK CAJA Batman 7.9.2026 15:30 1.000 TL
201 2019 Fiat/Tofaş EGEA SEDAN URBAN PLUS 1.3 M.JET 95 E6D Nevşehir 7.9.2026 15:30 1.000 TL
202 2024 Ford TRANSIT COURIER 1.5 TDCI 100 E6.2 DELUXE Muğla 7.9.2026 15:30 1.000 TL
203 1999 Peugeot 306 GRIFFE 1.6 5 KAPI Konya 7.9.2026 15:30 1.000 TL
204 2023 Iveco EUROCARGO MLC 120 EL 190 Samsun 7.9.2026 15:30 1.000 TL
205 2007 Renault CLIO SYMBOL 1.5 DCI Adana 7.9.2026 15:30 1.000 TL
206 2021 Mercedes CLS 400 D MATIC AMG İstanbul 7.9.2026 15:30 1.000 TL
207 1992 Fiat/Tofaş ŞAHİN 1.6 Antalya 7.9.2026 15:30 1.000 TL
208 2023 Ford TRANSIT COURIER 1.5 TDCI 75 E6.2 TREND Kayseri 7.9.2026 15:30 1.000 TL
209 2021 Honda FORZA 250 İstanbul 7.9.2026 15:30 1.000 TL
210 2024 Opel CORSA 1.2 100 AT8 GS FL İstanbul 7.9.2026 15:30 1.000 TL
211 2024 Renault CLIO EVOLUTION 1.0 TCE X-TRONIC 90 Uşak 7.9.2026 15:30 1.000 TL
212 2011 Alfa Romeo GIULIETTA 1.6 JTD 105 DISTINCTIVE Muğla 7.9.2026 15:30 1.000 TL
213 2009 Honda CIVIC SEDAN 1.6 ELEGANCE OV (Y) İzmir 7.9.2026 15:30 1.000 TL
214 2026 Peugeot 2008 1.2 HYBRID Kayseri 7.9.2026 15:30 1.000 TL
215 2022 Peugeot 2008 1.2 PURETECH 130 Bursa 7.9.2026 15:30 1.000 TL
216 2005 Daihatsu SİRİON 1.3 TOURİNG Balıkesir 7.9.2026 15:30 1.000 TL
217 1993 Fiat/Tofaş DOGAN 1.6 Tokat 7.9.2026 15:30 1.000 TL
218 1994 Fiat/Tofaş TEMPRA S İzmir 7.9.2026 15:30 1.000 TL
219 2008 Renault TRAFIC VAN 1.9 dCi İzmir 7.9.2026 15:30 1.000 TL
220 2026 Volkswagen CADDY 2.0 TDI Düzce 7.9.2026 15:30 1.000 TL
221 2021 Renault CLIO JOY 1.0 SCE İzmir 7.9.2026 15:30 1.000 TL
222 2023 Fiat/Tofaş FİORİNO COMBİ 1.3 M.JET Ankara 7.9.2026 15:30 1.000 TL
223 2021 Renault CLIO JOY 1.0 SCE 65 Bursa 7.9.2026 15:30 1.000 TL
224 2024 Hyundai i20 1.0 T-GDI Kocaeli 7.9.2026 15:30 1.000 TL
225 2017 Ford TRANSIT 410 L 155 AMBULANS İzmir 7.9.2026 15:30 1.000 TL
226 2018 Renault MEGANE SEDAN JOY 1.6 Şehir Seç 7.9.2026 15:30 1.000 TL
227 2019 Motorsiklet CFORCE 1000 Kocaeli 7.9.2026 15:30 1.000 TL
228 2014 Bmw R 1200 GS Şehir Seç 7.9.2026 15:30 1.000 TL
229 2025 Dacia SANDERO STEPWAY 1.0 Diyarbakır 7.9.2026 15:30 1.000 TL
230 2022 Fiat/Tofaş DOBLO COMBI 1.6 M.JET Hatay 7.9.2026 15:30 1.000 TL
231 2014 Renault MEGANE HB 1.6 İzmir 7.9.2026 15:30 1.000 TL
232 1976 Renault R12 TSW Burdur 7.9.2026 15:30 1.000 TL
233 2023 Peugeot PARTNER VAN 1.5 BLUEHDI Muğla 7.9.2026 15:30 1.000 TL
234 1999 Fiat/Tofaş DOGAN 1.6 SLX Gaziantep 7.9.2026 15:30 1.000 TL
235 2019 Ford TOURNEO COURIER KOMBI 1.5 TDCI Muğla 7.9.2026 15:30 1.000 TL
236 2023 Renault CLIO 1.0 Iğdır 7.9.2026 15:30 1.000 TL
237 2020 Renault MEGANE SEDAN 1.5 BLUEDCI Ankara 7.9.2026 15:30 1.000 TL
238 1997 Fiat/Tofaş UNO SX 1.4 Adana 7.9.2026 15:30 1.000 TL
239 2000 Hyundai ACCENT 1.5 GLS Kırıkkale 7.9.2026 15:30 1.000 TL
240 2021 Honda CIVIC 1.6 125 OV Ordu 7.9.2026 15:30 1.000 TL
241 2016 Fiat/Tofaş DOBLO CARGO MAXI 1.3 M.JET Gümüşhane 7.9.2026 15:30 1.000 TL
242 2024 Fiat/Tofaş FIORINO CARGO 1.3 M.JET Diyarbakır 7.9.2026 15:30 1.000 TL
243 2025 Peugeot RIFTER 1.5 BLUEHDI Van 7.9.2026 15:30 1.000 TL
244 2007 Dacia LOGAN AMBIANCE 1.5 DCI İstanbul 7.9.2026 15:30 1.000 TL
245 2020 Volkswagen T-ROC 1.5 TSI Osmaniye 7.9.2026 15:30 1.000 TL
246 2025 Fiat/Tofaş DUCATO MINIBUS 16+1 Malatya 7.9.2026 15:30 1.000 TL
247 2008 Peugeot 207 1.4 HDI PREMIUM Mersin 7.9.2026 15:30 1.000 TL
248 2013 Dacia DOKKER 1,5 DCİ Sakarya 7.9.2026 15:30 1.000 TL
249 2017 Fiat/Tofaş EGEA SEDAN 1.6 M.JET Osmaniye 7.9.2026 15:30 1.000 TL
250 2021 Volkswagen GOLF 1.0 eTSI 110 DSG Hatay 7.9.2026 15:30 1.000 TL
251 2022 Fiat/Tofaş EGEA SEDAN 1.4 FIRE 95 Bingöl 7.9.2026 15:30 1.000 TL
252 2010 Ford TRANSIT CONNECT K210S 1.8 TDCi (75) Sakarya 7.9.2026 15:30 1.000 TL
253 2010 Renault CLIO HB 1.5 DCI İzmir 7.9.2026 15:30 1.000 TL
254 2021 Citroen C3 1.2 PURETECH Hatay 7.9.2026 15:30 1.000 TL
255 2023 Dorse/Römork FESAN DAMPERLİ YARI RÖMORK Konya 7.9.2026 15:30 1.000 TL
256 2016 Skoda OCTAVIA 1.2 TSI Rize 7.9.2026 15:30 1.000 TL
257 2025 Opel MOKKA 1.2 TURBO Antalya 7.9.2026 15:30 1.000 TL
258 1993 Fiat/Tofaş SAHIN 1.6 İzmir 7.9.2026 15:30 1.000 TL
259 2023 Honda NSS250A FORZA 250 İstanbul 7.9.2026 15:30 1.000 TL
260 2007 Honda CIVIC SEDAN 1.6 Bursa 7.9.2026 15:30 1.000 TL
261 1997 Renault R19 EUROPA 1.6 HB RT Eskişehir 7.9.2026 15:30 1.000 TL
262 2024 Ford TRANSIT KAMYONET Kayseri 7.9.2026 15:30 1.000 TL
263 2012 Toyota COROLLA SEDAN 1.6 ELEGANT Tokat 7.9.2026 15:30 1.000 TL
264 2024 Honda PCX 125 İzmir 7.9.2026 15:30 1.000 TL
265 2016 Motorsiklet X-MAX 250 Düzce 7.9.2026 15:30 1.000 TL
266 2001 Fiat/Tofaş PALIO 1.2 S Konya 7.9.2026 15:30 1.000 TL
267 2009 Renault KANGOO MULTIX EXP. 1.5 DCI Zonguldak 7.9.2026 15:30 1.000 TL
268 1997 Fiat/Tofaş UNO 70 S Kayseri 7.9.2026 15:30 1.000 TL
269 2024 Motorsiklet FREEDOM 50 İzmir 7.9.2026 15:30 1.000 TL
270 2005 Peugeot PARTNER 2.0 HDI Bursa 7.9.2026 15:30 1.000 TL
271 2018 Nissan X-TRAIL 1.6 DCI 130 PLATINUM X-TRONIC Denizli 7.9.2026 15:30 1.000 TL
272 2023 Motorsiklet TVS NTORQ 125 Bursa 7.9.2026 15:30 1.000 TL
273 2008 Isuzu TFR 86 D-MAX Giresun 7.9.2026 15:30 1.000 TL
274 2024 Motorsiklet NOVAX İstanbul 7.9.2026 15:30 1.000 TL
275 2025 Bmw iX1 EDRIVE20 Samsun 7.9.2026 15:30 1.000 TL
276 2022 Fiat/Tofaş EGEA 1,4 FİRE Bilecik 7.9.2026 15:30 1.000 TL
277 2014 Volkswagen POLO 1.2 TDI Balıkesir 7.9.2026 15:30 1.000 TL
278 2020 Honda CIVIC 4D 1.6 125 OV Kocaeli 7.9.2026 15:30 1.000 TL
279 2023 Ford TOURNEO COURIER 1.0 ECOBOOST Bursa 7.9.2026 15:30 1.000 TL
280 2017 Fiat/Tofaş EGEA EASY 1.3 M.JET Adana 7.9.2026 15:30 1.000 TL
281 2013 Volkswagen TIGUAN 2.0 TDI İzmir 7.9.2026 15:30 1.000 TL
282 2018 Suzuki VITARA 1.6 Muğla 7.9.2026 15:30 1.000 TL
283 2011 Renault FLUENCE EXTREME 1.5 DCI 105 Sakarya 7.9.2026 15:30 1.000 TL
284 2017 Kia BONGO K2500 KAMYONET Rize 7.9.2026 15:30 1.000 TL
285 2016 Volkswagen JETTA 1.4 TSI BMT 125 Batman 7.9.2026 15:30 1.000 TL
286 2015 Ford TOURNEO COUIRER KOMBI 1.5 TDCI TREND İstanbul 7.9.2026 15:30 1.000 TL
287 2025 Togg T10X Şanlıurfa 7.9.2026 15:30 1.000 TL
288 2022 Renault CLIO JOY 1.0 SCE İzmir 7.9.2026 15:30 1.000 TL
289 2006 Toyota COROLLA 1.6 TERRA Ankara 7.9.2026 15:30 1.000 TL
290 2015 Honda CBF 150 SH İstanbul 7.9.2026 15:30 1.000 TL
291 2025 Motorsiklet 450 SR İstanbul 7.9.2026 15:30 1.000 TL
292 2000 Bmw 520 İA Çorum 7.9.2026 15:30 1.000 TL
293 2017 Fiat/Tofaş FIORINO COMBI 1.3 M.JET Osmaniye 7.9.2026 15:30 1.000 TL
294 2023 Motorsiklet 125 DRİFT L Adana 7.9.2026 15:30 1.000 TL
295 2017 Motorsiklet YZF R25 Şehir Seç 7.9.2026 15:30 1.000 TL
296 2023 Motorsiklet NR 200 Hatay 7.9.2026 15:30 1.000 TL
297 2025 Honda CB 125 F Antalya 7.9.2026 15:30 1.000 TL
298 2025 Motorsiklet R25 Aydın 7.9.2026 15:30 1.000 TL
299 2012 Ford TRANSIT KAMYONET Denizli 7.9.2026 15:30 1.000 TL
300 2017 Opel ASTRA NB 1.6 Rize 7.9.2026 15:30 1.000 TL
301 2026 Motorsiklet NEWCITY 50 Şehir Seç 7.9.2026 15:30 1.000 TL
302 2022 Motorsiklet 125 DRIFT L Tekirdağ 7.9.2026 15:30 1.000 TL
303 2015 Volkswagen CRAFTER OKUL 16+1 Şehir Seç 7.9.2026 15:30 1.000 TL
304 2025 Renault CLIO 1.0 TCE X-TRONIC 90 Elazığ 7.9.2026 15:30 1.000 TL
305 2022 Fiat/Tofaş DOBLO CARGO MAXI 1.6 M.JET Tekirdağ 7.9.2026 15:30 1.000 TL
306 2014 Volkswagen PASSAT 1.6 TDI 105 BMT TIPT. Malatya 7.9.2026 15:30 1.000 TL
307 2016 Renault MASTER 16+1 Konya 7.9.2026 15:30 1.000 TL
308 1989 Renault R 12 TSW Uşak 7.9.2026 15:30 1.000 TL
309 2011 Opel CORSA 1.2i TWINPORT İzmir 7.9.2026 15:30 1.000 TL
310 1998 Toyota COROLLA 1.6 Kayseri 7.9.2026 15:30 1.000 TL
311 2016 Opel ASTRA NB 1.6 Kütahya 7.9.2026 15:30 1.000 TL
312 2021 Peugeot 208 1.2 PURETECH 100 Bursa 7.9.2026 15:30 1.000 TL
313 2017 Fiat/Tofaş EGEA SEDAN 1.3 M.JET İstanbul 7.9.2026 15:30 1.000 TL
314 2025 Toyota C-HR 1.8 HYBRID İstanbul 7.9.2026 15:30 1.000 TL
315 2026 Motorsiklet MOJITO 50 İstanbul 7.9.2026 15:30 1.000 TL
316 2015 Motorsiklet M 7040 Kocaeli 7.9.2026 15:30 1.000 TL
317 2023 Motorsiklet DOMINAR D 400 Şehir Seç 7.9.2026 15:30 1.000 TL
318 2023 Dorse/Römork HASTRAİLLER FCC YARI RÖMORK Hatay 7.9.2026 15:30 1.000 TL
319 2007 Dorse/Römork SDP 27 YARI RÖMORK Antalya 7.9.2026 15:30 1.000 TL
320 2024 Motorsiklet CG 50 Batman 7.9.2026 15:30 1.000 TL
321 2001 Ford FOCUS 1.6i GHIA SEDAN İzmir 7.9.2026 15:30 1.000 TL
322 2025 Motorsiklet QUANTUM 50 Ankara 7.9.2026 15:30 1.000 TL
323 2011 Peugeot PARTNER TEPEE COMFORT 1.6 HDI Batman 7.9.2026 15:30 1.000 TL
324 2024 Renault DUSTER 1.2 HYBRID Diyarbakır 7.9.2026 15:30 1.000 TL
325 2021 Motorsiklet X MAX 250 İzmir 7.9.2026 15:30 1.000 TL
326 2021 Fiat/Tofaş DOBLO COMBI 1.6 M.JET Konya 7.9.2026 15:30 1.000 TL
327 2012 Renault FLUENCE 1.5 DCI Ankara 7.9.2026 15:30 1.000 TL
328 1995 Fiat/Tofaş DOGAN SLX 1.6 Aydın 7.9.2026 15:30 1.000 TL
329 2012 Citroen DS4 1.6 EHDI Balıkesir 7.9.2026 15:30 1.000 TL
330 2004 Ford MONDEO 2.0 TDCI SEDAN İstanbul 7.9.2026 15:30 1.000 TL
331 2022 Honda PCX 125 Sakarya 7.9.2026 15:30 1.000 TL
332 2013 Renault SYMBOL 1.5 DCI İstanbul 7.9.2026 15:30 1.000 TL
333 2016 Peugeot 3008 1.6 BLUEHDI Ankara 7.9.2026 15:30 1.000 TL
334 2016 Nissan MICRA 1.2 STREET İzmir 7.9.2026 15:30 1.000 TL
335 2025 Renault MEGANE SEDAN 1.3 TCE Malatya 7.9.2026 15:30 1.000 TL
336 2020 Peugeot 2008 1.5 BLUEHDI İstanbul 7.9.2026 15:30 1.000 TL
337 1999 Toyota COROLLA 1.3 BASE Ankara 7.9.2026 15:30 1.000 TL
338 2007 Ford T. CONNECT 1,8 TDCİ Malatya 7.9.2026 15:30 1.000 TL
339 2025 Motorsiklet SFM IHLARA SF 400 Denizli 7.9.2026 15:30 1.000 TL
340 2014 Renault SYMBOL 1,2 Manisa 7.9.2026 15:30 1.000 TL
341 1995 Renault R12 TOROS Antalya 7.9.2026 15:30 1.000 TL
342 2023 Motorsiklet DOMINAR D 400 Bursa 7.9.2026 15:30 1.000 TL
343 2021 Motorsiklet RM5 X Manisa 7.9.2026 15:30 1.000 TL
344 2009 Bmw 116i HB Muğla 7.9.2026 15:30 1.000 TL
345 2017 Dacia SANDERO 1.5 DCI 90 Manisa 7.9.2026 15:30 1.000 TL
346 2021 Renault EXPRESS VAN JOY 1.5 BLUEDCI 95 İstanbul 7.9.2026 15:30 1.000 TL
347 2018 Volkswagen CADDY 2.0 TDI SCR BMT 102 Diyarbakır 7.9.2026 15:30 1.000 TL
348 2023 Honda PCX 125 Şehir Seç 7.9.2026 15:30 1.000 TL
349 2006 Honda CITY 1.4 COMFORT İstanbul 7.9.2026 15:30 1.000 TL
350 2021 Fiat/Tofaş EGEA CROSS 1.4 FIRE Kahramanmaraş 7.9.2026 15:30 1.000 TL
351 2023 Ford CEKICI F-MAX Aksaray 7.9.2026 15:30 1.000 TL
352 2024 Ford CEKICI F-MAX Hatay 7.9.2026 15:30 1.000 TL
353 2006 Suzuki JIMNY 1.3 JLX Şehir Seç 7.9.2026 15:30 1.000 TL
354 2020 Dacia DUSTER COMFORT 1.5 BLUEDCI Malatya 7.9.2026 15:30 1.000 TL
355 2024 Renault CLIO 1.0 TCE Bursa 7.9.2026 15:30 1.000 TL
356 2013 Dacia DUSTER 1.5 DCI Muğla 7.9.2026 15:30 1.000 TL
357 2025 Renault CLIO 1.0 TCE İstanbul 7.9.2026 15:30 1.000 TL
358 2023 Volkswagen POLO 1.0 Bursa 7.9.2026 15:30 1.000 TL
359 2022 Opel COMBO 1.5 DIZEL Trabzon 7.9.2026 15:30 1.000 TL
360 2024 Fiat/Tofaş DOBLO COMBI 1.5 BLUEHDI İstanbul 7.9.2026 15:30 1.000 TL
361 2002 Renault MEGANE 1.6 RXI Ankara 7.9.2026 15:30 1.000 TL
362 2025 Citroen C4 X 1,2 PURETECH Hatay 7.9.2026 15:30 1.000 TL
363 2025 Citroen C4 X 1.2 PURETECH 130 Konya 7.9.2026 15:30 1.000 TL
364 2025 Citroen C4 X 1,2 PURETECH Samsun 7.9.2026 15:30 1.000 TL
365 2026 Renault CLIO 1.0 TCE Trabzon 7.9.2026 15:30 1.000 TL
366 2026 Renault CLIO 1.0 TCE X-TRONIC 90 Samsun 7.9.2026 15:30 1.000 TL
367 2025 Citroen C4 X YOU 1.2 PureTech Antalya 7.9.2026 15:30 1.000 TL
368 1993 Fiat/Tofaş DOĞAN SLX 1.6 Manisa 7.9.2026 15:30 1.000 TL
369 1997 Renault R19 EUROPA 1.6 RT Kocaeli 7.9.2026 15:30 1.000 TL
370 2026 Renault MEGANE SEDAN 1.3 TCE Kayseri 7.9.2026 15:30 1.000 TL
371 2023 Fiat/Tofaş EGEA 1.4 SEDAN Gaziantep 7.9.2026 15:30 1.000 TL
372 2020 Fiat/Tofaş DOBLO CARGO MAXI 1.3 M.JET Bursa 7.9.2026 15:30 1.000 TL
373 2008 Honda ACCORD 2.0 EXECUTIVE OV Kocaeli 7.9.2026 15:30 1.000 TL
374 2022 Mini COUNTRYMAN 1.5 Ankara 7.9.2026 15:30 1.000 TL
375 2024 Skoda KAMIQ 1.0 TSI İstanbul 7.9.2026 15:30 1.000 TL
376 2010 Honda NT 700VA İzmir 7.9.2026 15:30 1.000 TL
377 2014 Motorsiklet ZS Kocaeli 7.9.2026 15:30 1.000 TL
378 2007 Skoda FABIA AMBIENTE 1.4 Ankara 7.9.2026 15:30 1.000 TL
379 1996 Fiat/Tofaş DOĞAN SLX Şehir Seç 7.9.2026 15:30 1.000 TL
380 2024 Motorsiklet MAX PRO 125 Çanakkale 7.9.2026 15:30 1.000 TL
381 2008 Hyundai ACCENT ERA 1.4 TEAM İstanbul 7.9.2026 15:30 1.000 TL
382 2024 Motorsiklet RAYZR 125 Düzce 7.9.2026 15:30 1.000 TL
383 2000 Volkswagen POLO 1.6 CLASSIC Eskişehir 7.9.2026 15:30 1.000 TL
384 2023 Volkswagen TIGUAN 1.5 TSI Ankara 7.9.2026 15:30 1.000 TL
385 2015 Bmw BMW R 1200 GS Ankara 7.9.2026 15:30 1.000 TL
386 2016 Volkswagen GOLF 1.2 TSI Eskişehir 7.9.2026 15:30 1.000 TL
387 2020 Hyundai KONA 1.6 CRDI Erzurum 7.9.2026 15:30 1.000 TL
388 2016 Ford FOCUS 1,5 TDCİ Ankara 7.9.2026 15:30 1.000 TL
389 2024 Ford FOCUS 1.5 EcoBlue Trabzon 7.9.2026 15:30 1.000 TL
390 2018 Hyundai TUCSON 1.6 CRDI ELITE PLUS Ankara 7.9.2026 15:30 1.000 TL
391 2024 Motorsiklet RKS M250 Konya 7.9.2026 15:30 1.000 TL
392 2023 Motorsiklet PESARO 125 X Şanlıurfa 7.9.2026 15:30 1.000 TL
393 2005 Toyota YARIS 1.3 SOL Ankara 7.9.2026 15:30 1.000 TL
394 2000 Renault SCENIC 1.6 RXE İzmir 7.9.2026 15:30 1.000 TL
395 2024 Kgmobılıty TORRES EVX Ankara 7.9.2026 15:30 1.000 TL
396 1998 Fiat/Tofaş TIPO 1.4 Bingöl 7.9.2026 15:30 1.000 TL
397 2005 Renault MEGANE II SEDAN 1.5 DCI Antalya 7.9.2026 15:30 1.000 TL
398 2026 Chery TİGGO 7 1.6 T-GDI Hatay 7.9.2026 15:30 1.000 TL
399 2006 Hyundai STAREX 2.5 CRDI İstanbul 7.9.2026 15:30 1.000 TL
400 2004 Hyundai ELANTRA 1.6 Samsun 7.9.2026 15:30 1.000 TL
401 2005 Ford CARGO 2524 (6x2) DS Bursa 7.9.2026 15:30 1.000 TL
402 2020 Ford F-MAX Ankara 7.9.2026 15:30 1.000 TL
403 2018 Honda CIVIC SEDAN 1.6 Bursa 7.9.2026 15:30 1.000 TL
404 1992 Fiat/Tofaş TEMPRA SX AK Ankara 7.9.2026 15:30 1.000 TL
405 1994 Bmw 520I SEDAN Kayseri 7.9.2026 15:30 1.000 TL
406 2017 Dacia DOKKER COMBI AMBIANCE 1.5 DCI Adana 7.9.2026 15:30 1.000 TL
407 2025 Dacia SANDERO 1.0 Muğla 7.9.2026 15:30 1.000 TL
408 2024 Motorsiklet 250 SR İstanbul 7.9.2026 15:30 1.000 TL
409 2020 Motorsiklet X-MAX 250 Antalya 7.9.2026 15:30 1.000 TL
410 2023 Renault CLIO 1.0 TCE X-TRONIC 90 Ankara 7.9.2026 15:30 1.000 TL
411 2023 Honda CBF 250 NA Samsun 7.9.2026 15:30 1.000 TL
412 2023 Iveco DAILY KAMYONET 35 C 16 Diyarbakır 7.9.2026 15:30 1.000 TL
413 2024 Motorsiklet AR 50 Denizli 7.9.2026 15:30 1.000 TL
414 2023 Motorsiklet AZURE GST50QT-5 Antalya 7.9.2026 15:30 1.000 TL
415 2021 Honda DIO 110 Afyonkarahisar 7.9.2026 15:30 1.000 TL
416 2018 Lexus ES 300H Bursa 7.9.2026 15:30 1.000 TL
417 2023 Motorsiklet EGE 50 Mersin 7.9.2026 15:30 1.000 TL
418 2023 Renault EXPRESS COMB 1.5 BLUEDCI Konya 7.9.2026 15:30 1.000 TL
419 2010 Dacia LOGAN MCV 1.5 DCİ AMBİANCE Kocaeli 7.9.2026 15:30 1.000 TL
420 2005 Toyota COROLLA 1.6 Edirne 7.9.2026 15:30 1.000 TL
421 2010 Ford FOCUS 1,6 TDCİ TITANIUM Antalya 7.9.2026 15:30 1.000 TL
422 2024 Peugeot 2008 1.2 Ankara 7.9.2026 15:30 1.000 TL
423 2023 Ford TOURNEO COURIER KOMBI 1.5 TDCI Şırnak 7.9.2026 15:30 1.000 TL
424 1990 Fiat/Tofaş KARTAL 1.6 Muğla 7.9.2026 15:30 1.000 TL
425 1991 Renault R1339 Mersin 7.9.2026 15:30 1.000 TL
426 2013 Volkswagen POLO 1.2 TDI TRENDLINE Mardin 7.9.2026 15:30 1.000 TL
427 2024 Ford TRANSIT COURIER VAN 1.5 D Ankara 7.9.2026 15:30 1.000 TL
428 2024 Motorsiklet 125 DRIFT L Antalya 7.9.2026 15:30 1.000 TL
429 2016 Hyundai TUCSON 1.6 T-GDI Samsun 7.9.2026 15:30 1.000 TL
430 2014 Hyundai i20 1.4 Şehir Seç 7.9.2026 15:30 1.000 TL
431 2021 Dacia SANDERO 1,0 TCE Diyarbakır 7.9.2026 15:30 1.000 TL
432 2015 Renault MASTER 2,3 DCİ Konya 7.9.2026 15:30 1.000 TL
433 2015 Ford FOCUS 1,5 TDCİ Ankara 7.9.2026 15:30 1.000 TL
434 1998 Renault 19 EUROPA 1.6 Şehir Seç 7.9.2026 15:30 1.000 TL
435 2022 Volkswagen CADDY 2.0 TDI Eskişehir 7.9.2026 15:30 1.000 TL
436 2022 Motorsiklet 250 NK İstanbul 7.9.2026 15:30 1.000 TL
437 2004 Peugeot 307 XR 1.4 HDI Adana 7.9.2026 15:30 1.000 TL
438 2015 Kia SPORTAGE 1.6 Aydın 7.9.2026 15:30 1.000 TL
439 2013 Opel CORSA 1.3 CDTİ Adana 7.9.2026 15:30 1.000 TL
440 2012 Hyundai ix351.6 GDI 6MT 4x2 STYLE PLUS Tekirdağ 7.9.2026 15:30 1.000 TL
441 2004 Opel CORSA 1.2 ESSENTIA Şehir Seç 7.9.2026 15:30 1.000 TL
442 1995 Fiat/Tofaş ŞAHİN 1.6 Ankara 7.9.2026 15:30 1.000 TL
443 2026 Bmw 520İ Kayseri 7.9.2026 15:30 1.000 TL
444 2025 Renault MEGANE SEDAN 1.3 TCE İzmir 7.9.2026 15:30 1.000 TL
445 2026 Fiat/Tofaş EGEA 1,6 MULTİJET Edirne 7.9.2026 15:30 1.000 TL
446 2011 Renault SYMBOL AUTHENTIQUE 1.5 DCI Şehir Seç 7.9.2026 15:30 1.000 TL
447 2024 Motorsiklet QUANTUM 50 İzmir 7.9.2026 15:30 1.000 TL
448 2016 Fiat/Tofaş DOBLO COMBI 1.6 M.JET Ankara 7.9.2026 15:30 1.000 TL
449 2024 Motorsiklet RT3 125 Malatya 7.9.2026 15:30 1.000 TL
450 2023 Citroen AMI Ankara 7.9.2026 15:30 1.000 TL
451 2022 Motorsiklet SPONTINI 110 (GST110T-14) İzmir 7.9.2026 15:30 1.000 TL
452 2004 Hyundai GETZ 1.3 GLS OV Ankara 7.9.2026 15:30 1.000 TL
453 2007 Toyota YARIS 1.0 TERRA Elazığ 7.9.2026 15:30 1.000 TL
454 1999 Toyota AVENSIS 2.0 SEDAN Karabük 7.9.2026 15:30 1.000 TL
455 2025 Hyundai i20 1.0 T-GDI Kahramanmaraş 7.9.2026 15:30 1.000 TL
456 2022 Renault CLIO JOY 1.0 Kocaeli 7.9.2026 15:30 1.000 TL
457 2015 Dacia SANDERO 1.5 DCI Uşak 7.9.2026 15:30 1.000 TL
458 2023 Tesla MODEL Y Ankara 7.9.2026 15:30 1.000 TL
459 2006 Ford FIESTA 1.4 COMFORT Sakarya 7.9.2026 15:30 1.000 TL
460 2017 Volkswagen POLO 1.4 TDI Manisa 7.9.2026 15:30 1.000 TL
461 2013 Dacia LODGY 1.5 DCI Şehir Seç 7.9.2026 15:30 1.000 TL
462 2012 Renault SYMBOL 1.5 DCI İstanbul 7.9.2026 15:30 1.000 TL
463 2014 Volkswagen JETTA 1.6 TDI Adana 7.9.2026 15:30 1.000 TL
464 2006 Renault CLIO ALIZE Kütahya 7.9.2026 15:30 1.000 TL
465 1999 Ford FOCUS 1.6 SEDAN Uşak 7.9.2026 15:30 1.000 TL
466 1994 Fiat/Tofaş KARTAL 1.6 Şehir Seç 7.9.2026 15:30 1.000 TL
467 2023 Peugeot 2008 1.2 PURETECH Denizli 7.9.2026 15:30 1.000 TL
468 1992 Fiat/Tofaş ŞAHİN 1.6 Şehir Seç 7.9.2026 15:30 1.000 TL
469 2026 Motorsiklet FR177 Kastamonu 7.9.2026 15:30 1.000 TL
470 2005 Nissan ALMERA 1.5 Muğla 7.9.2026 15:30 1.000 TL
471 2020 Dacia DOKKER VAN 1.5 BLUEDCI Şehir Seç 7.9.2026 15:30 1.000 TL
472 2015 Skoda OCTAVIA 1.6 TDI Bingöl 7.9.2026 15:30 1.000 TL
473 2026 Fiat/Tofaş EGEA 1.6 M.JET Konya 7.9.2026 15:30 1.000 TL
474 1998 Toyota HILUX Kahramanmaraş 7.9.2026 15:30 1.000 TL
475 2021 Renault ZOE Kocaeli 7.9.2026 15:30 1.000 TL
476 1991 Nissan LAUREL ALTIMA 2.0 Şehir Seç 7.9.2026 15:30 1.000 TL
477 2010 Motorsiklet Salcano WOLF 125 Antalya 7.9.2026 15:30 TL
478 1998 Ford ESCORT 1.6i CL SEDAN Şehir Seç 7.9.2026 15:30 1.000 TL
479 1998 Volkswagen POLO 1.6 CLASSIC (ESKİ KASA) Aydın 7.9.2026 15:30 1.000 TL
480 2024 Motorsiklet 250 NK Malatya 7.9.2026 15:30 1.000 TL
481 2023 Motorsiklet MATI 125 Antalya 7.9.2026 15:30 1.000 TL
482 2015 Nissan MİCRA 1.2 STREET Muğla 7.9.2026 15:30 1.000 TL
483 2021 Opel COMBO 1.5 D 130 Antalya 7.9.2026 15:30 1.000 TL
484 2019 Dorse/Römork KRONE SD TENTELİ Gaziantep 7.9.2026 15:30 1.000 TL
485 2024 Motorsiklet VERANO 50 Eskişehir 7.9.2026 15:30 1.000 TL
486 2004 Renault MEGANE II SEDAN DYNAMIC 1.6 16V Ankara 7.9.2026 15:30 1.000 TL
487 2022 Renault EXPRESS COMBI JOY 1.5 BLUEDCI Samsun 7.9.2026 15:30 1.000 TL
488 2015 Motorsiklet JOYMAX 250i Tokat 7.9.2026 15:30 1.000 TL
489 2020 Motorsiklet MT 25 Çanakkale 7.9.2026 15:30 1.000 TL
490 2016 Ford TRANSIT CUSTOM VAN İstanbul 7.9.2026 15:30 1.000 TL
491 2026 Honda FORZA 250 NSS250A İstanbul 7.9.2026 15:30 1.000 TL
492 2023 Motorsiklet 125 DRIFT L İzmir 7.9.2026 15:30 1.000 TL
493 2020 Honda CRF1100 AFRICA TWIN ADVNTURESPORTSES DCT Muğla 7.9.2026 15:30 1.000 TL
494 2017 Ford TRANSİT 350M KAMYONET İstanbul 7.9.2026 15:30 1.000 TL
495 2023 Motorsiklet 250 NK Antalya 7.9.2026 15:30 1.000 TL
496 2015 Hyundai i30 1.6 CRDI ELITE İzmir 7.9.2026 15:30 1.000 TL
497 2014 Fiat/Tofaş DOBLO 1.3 M.JET Şehir Seç 7.9.2026 15:30 1.000 TL
498 2024 Hyundai IONIQ 6 İstanbul 7.9.2026 15:30 1.000 TL
499 1987 Renault BROADWAY 1.4 Balıkesir 7.9.2026 15:30 1.000 TL
500 2024 Motorsiklet JUPITER 125 Şehir Seç 7.9.2026 15:30 1.000 TL
501 2010 Honda CIVIC 1.6 DREAM Bursa 7.9.2026 15:30 1.000 TL
502 2024 Chery TIGGO 8 PRO MAX 1.6 T-GDI İstanbul 7.9.2026 15:30 1.000 TL
503 2014 Motorsiklet ZONE S Tokat 7.9.2026 15:30 1.000 TL
504 2005 Citroen C3 1.4İ 16V HDI SX Şehir Seç 7.9.2026 15:30 1.000 TL
505 2010 Ford RANGER CIFT KABIN K.NET 4x2 Muğla 7.9.2026 15:30 1.000 TL
506 2004 Renault MEGANE 1.6 Sivas 7.9.2026 15:30 1.000 TL
507 2017 Seat LEON ST 1.6 TDI 115 DSG Batman 7.9.2026 15:30 1.000 TL
508 2021 Renault MEGANE 1,3 TCE Erzurum 7.9.2026 15:30 1.000 TL
509 2021 Renault CLIO 1,0 TCE Sivas 7.9.2026 15:30 1.000 TL
510 2018 Skoda OCTAVIA 1.6 TDI Ordu 7.9.2026 15:30 1.000 TL
511 2016 Ford TRANSIT MİNÜBÜS Malatya 7.9.2026 15:30 1.000 TL
512 2013 Volkswagen TRANSPORTER 2,0 TDI Elazığ 7.9.2026 15:30 1.000 TL
513 2021 Toyota COROLLA 1.8 HYBRID Diyarbakır 7.9.2026 15:30 1.000 TL
514 2016 Bmw 320i ED SEDAN 1.6 İstanbul 7.9.2026 15:30 1.000 TL
515 2019 Fiat/Tofaş EGEA SEDAN 1.3 M.JET Çorum 7.9.2026 15:30 1.000 TL
516 2014 Opel ASTRA HB 1.6 İstanbul 7.9.2026 15:30 1.000 TL
517 2023 Motorsiklet ÇITA 50 R GOLD Malatya 7.9.2026 15:30 1.000 TL
518 2015 Mercedes CEKICI AXOR 1840 LS E5 Adana 7.9.2026 15:30 1.000 TL
519 2006 Ford KAMYON CARGO 2524 (6x2) Muğla 7.9.2026 15:30 1.000 TL
520 2025 Motorsiklet NEWCITY 50 İstanbul 7.9.2026 15:30 1.000 TL
521 2019 Fiat/Tofaş EGEA SEDAN 1.3 M.JET 95 Van 7.9.2026 15:30 1.000 TL
522 2024 Motorsiklet AZURE GST50QT-5 Şehir Seç 7.9.2026 15:30 1.000 TL
523 2014 Mercedes SPRINTER 416 CDI OTOBUS 19+1 Ankara 7.9.2026 15:30 1.000 TL
524 2001 Fiat/Tofaş MAREA 1.6 ELX Kayseri 7.9.2026 15:30 1.000 TL
525 1992 Fiat/Tofaş DOĞAN 1.6 Balıkesir 7.9.2026 15:30 1.000 TL
526 2012 Ford T. CONNECT KOMBI 1.8 TDCi Siirt 7.9.2026 15:30 1.000 TL
527 1995 Fiat/Tofaş UNO SX Gaziantep 7.9.2026 15:30 1.000 TL
528 2024 Motorsiklet 250 SR Antalya 7.9.2026 15:30 1.000 TL
529 2022 Renault CLIO JOY 1.0 TCE X-TRONIC 90 Kahramanmaraş 7.9.2026 15:30 1.000 TL
530 2026 Hyundai I20 1.0 T-GDI 90 STYLE DCT İstanbul 7.9.2026 15:30 1.000 TL
531 2026 Bmw 320I SEDAN 1.6 170 SPORT LINE İstanbul 7.9.2026 15:30 1.000 TL
532 2026 Bmw IX1 EDRIVE20 SPORT LINE İstanbul 7.9.2026 15:30 1.000 TL
533 2025 Bmw 120 1.5 170 SPORT LINE İstanbul 7.9.2026 15:30 1.000 TL
534 2022 Motorsiklet APRILIA RSV4 Kayseri 7.9.2026 15:30 1.000 TL
535 2025 Peugeot 2008 ALLURE 1.2 PURETECH 130 EAT 8 FL İstanbul 7.9.2026 15:30 1.000 TL
536 2022 Audi A3 SEDAN 1.5 Hatay 7.9.2026 15:30 1.000 TL
537 2006 Bmw 535D Hatay 7.9.2026 15:30 1.000 TL
538 2011 Citroen BERLINGO COMBI X 1.6 HDI (92) Eskişehir 7.9.2026 15:30 1.000 TL
539 1991 Renault R12 Mersin 7.9.2026 15:30 1.000 TL
540 2016 Citroen C-ELYSEE 1.6 HDI 92 ATTRACTION İstanbul 7.9.2026 16:30 70.000 TL
541 2010 Fiat/Tofaş FIORINO COMBIMIX 1.3 M.JET Gaziantep 7.9.2026 16:30 100.000 TL
542 2008 Suzuki SWIFT 1.3 Ankara 7.9.2026 16:30 136.000 TL
543 2023 Honda PCX 125 Kocaeli 7.9.2026 16:30 41.000 TL
544 2013 Volvo S80 2.0 D4 ADVANCE GEARTRONIC İstanbul 7.9.2026 16:30 1.000 TL
545 2025 Ford TOURNEO COURIER 1.0 P 125 AT TITANIUM İstanbul 7.9.2026 16:30 250 TL
546 2001 Renault CLIO SYMBOL 1.4 Ankara 7.9.2026 16:30 104.000 TL
547 2017 Isuzu D-MAX CIFT KABIN KAMYONET 2.5 4x4 TR 6MT İstanbul 7.9.2026 16:30 200.000 TL
548 2023 Ford TOURNEO CONNECT KOMBI ACTIVE 2.0 (122) 7AT İstanbul 7.9.2026 16:30 655.500 TL
549 2025 Fiat/Tofaş SCUDO VAN STD L2 BUSINESS 1.5 MJET 120 İstanbul 7.9.2026 16:30 1.000 TL
550 2021 Skoda SUPERB 1.5 TSI Batman 7.9.2026 16:30 1.250.000 TL
551 2020 Audi A4 40 TDI QUATTRO İstanbul 7.9.2026 16:30 1.350.000 TL
552 2018 Mercedes C 200 D 1.6 Bursa 7.9.2026 16:30 1.485.500 TL
553 2015 Dorse/Römork YARI ROMORK Konya 7.9.2026 16:30 25.500 TL
554 1998 Hyundai ACCENT 1.3 Isparta 7.9.2026 16:30 31.000 TL
555 2018 Skoda FABIA 1.0 TSI Aydın 7.9.2026 16:30 650.000 TL
556 2026 Dorse/Römork DAMPERLİ YARI RÖMORK Mersin 7.9.2026 16:30 300.000 TL
557 2018 Peugeot 301 1.6 BLUEHDI Kayseri 7.9.2026 16:30 100.000 TL
558 2002 Audi A4 2.0 Sakarya 7.9.2026 16:30 1.000 TL
559 1992 Renault R9 BRODWAY 1,4 Uşak 7.9.2026 16:30 1.000 TL
560 2011 Dacia LOGAN MCV AMBIANCE 1.5 DCI Afyonkarahisar 7.9.2026 16:30 1.000 TL
561 1995 Fiat/Tofaş DOGAN S Afyonkarahisar 7.9.2026 16:30 1.000 TL
562 1995 Fiat/Tofaş KARTAL 1,6 Trabzon 7.9.2026 16:30 1.000 TL
563 2023 Iveco S-WAY AS440ST/P Hatay 7.9.2026 16:30 500 TL
564 2022 Fiat/Tofaş EGEA 1,3 MULTİJET İstanbul 7.9.2026 16:30 1.000 TL
565 2013 Renault MEGANE 1,5 DCİ Antalya 7.9.2026 16:30 1.000 TL
566 2012 Fiat/Tofaş DOBLO CARGO 1,3 MULTIJET Kırıkkale 7.9.2026 16:30 1.000 TL
567 2011 Audi A8 4.2 TDI QUATTRO İzmir 7.9.2026 16:30 51.000 TL
568 2014 Fiat/Tofaş LINEA 1,3 MULTİJET Bursa 7.9.2026 16:30 5.000 TL
569 2012 Renault KANGOO EXPRESS MAXI 1.5 DCI İzmir 7.9.2026 16:30 1.000 TL
570 2023 Motorsiklet BLUEBIRD 50 Aydın 7.9.2026 16:30 1.000 TL
571 2020 Renault MEGANE 1,5 BLUEDCİ İstanbul 7.9.2026 16:30 400.000 TL
572 2020 Fiat/Tofaş EGEA SEDAN EASY STIL 1.4 FIRE 95 E6D Van 7.9.2026 16:30 202.000 TL
573 2025 Motorsiklet APEC APX5 150 Kocaeli 7.9.2026 16:30 1.000 TL
574 2023 Toyota COROLLA 1.6 DREAM MULTIDRIVE S Sakarya 7.9.2026 16:30 500 TL
575 2024 Motorsiklet ZONTES ZT250T-E İstanbul 7.9.2026 16:30 1.000 TL
576 2023 Dorse/Römork TENTELI TIP 20 Ankara 7.9.2026 16:30 120.000 TL
577 2004 Kia RIO 1.5 HB TREND Tekirdağ 7.9.2026 16:30 50.000 TL
578 2001 Nissan ALMERA 1.5 LUXURY 5 KAPI Konya 7.9.2026 16:30 1.000 TL
579 2006 Ford MONDEO 2.0i GHIA X SEDAN Bursa 7.9.2026 16:30 1.000 TL
580 2021 Motorsiklet BAJAJ PULSAR RS 200 İstanbul 7.9.2026 16:30 1.000 TL
581 2024 Peugeot 2008 ALLURE 1.2 PURETECH 130 EAT8 FL Kocaeli 7.9.2026 16:30 125.000 TL
582 2015 Volkswagen PASSAT 1.4 TSI ACT BMT 150 COMFORTLINE İstanbul 7.9.2026 16:30 95.000 TL
583 2025 Renault MEGANE SEDAN ICON 1.3 TCE EDC 140 FAZ2 Ankara 7.9.2026 16:30 550.000 TL
584 1996 Toyota COROLLA 1.6 XEi (Y) Samsun 7.9.2026 16:30 1.000 TL
585 2012 Mercedes AXOR 1840 LS E5 Antalya 7.9.2026 16:30 1.000 TL
586 2021 Bmw 320i SEDAN 1.6 170 SPORT LINE Ankara 7.9.2026 16:30 25.000 TL
587 2016 Volkswagen TIGUAN 1.4 TSI ACT BMT 150 DSG COMFORTLINE İstanbul 7.9.2026 16:30 401.000 TL
588 2016 Skoda FABIA 1.2 TSI 110 DSG GREEN TEC STYLE İstanbul 7.9.2026 16:30 1.000 TL
589 2025 Opel COMBO EDITION 1.5 DIZEL AT8 130 FL Ankara 7.9.2026 16:30 1.000 TL
590 2021 Citroen C4 SHINE BOLD 1.2 PURETECH 155 EAT8 E6.3 Ankara 7.9.2026 16:30 500 TL
591 2021 Citroen C5AIRCROSS SHINEBOLD 1.5 BLUEHDI 130 S&S EAT8 İstanbul 7.9.2026 16:30 750.000 TL
592 2025 Renault CLIO EVOLUTION 1.0 TCE X-TRONIC 90 İstanbul 7.9.2026 16:30 515.000 TL
593 2021 Ford TOURNEO COURIER JOURNEY 1.5 TDCI 100 E6.2 TIT İstanbul 7.9.2026 16:30 100.000 TL
594 2022 Renault TALIANT JOY 1.0 SCE 65 Ankara 7.9.2026 16:30 55.000 TL
595 2024 Skoda KAMIQ 1.0 TSI 115 DSG ELITE FL İstanbul 7.9.2026 16:30 605.000 TL
596 2007 Ford TRANSIT 350 M KAMYONET Giresun 7.9.2026 16:30 125.000 TL
597 2025 Scania S560 DYNAMIC Samsun 7.9.2026 16:30 1.450.000 TL
598 2012 Ford CARGO 1838T 4X2 Mardin 7.9.2026 16:30 500 TL
599 2025 Motorsiklet RKS SRK 125 - R Nevşehir 7.9.2026 16:30 500 TL
600 2011 Hyundai GETZ 1.5 CRDI VGT İstanbul 7.9.2026 16:30 1.500 TL
601 2011 Ford TRANSIT 350 L MINIBUS Ankara 7.9.2026 16:30 1.000 TL
602 2019 Audi A8 L 3.0 TDI 286 QUATTRO İstanbul 7.9.2026 16:30 1.200.000 TL
603 2025 Audi A6 SEDAN 40 TDI QUATTRO S LINE 204 S TRONIC İstanbul 7.9.2026 16:30 1.500 TL
604 2008 Audi A6 2.0 TDI MULTIRONIC Sakarya 7.9.2026 16:30 1.000 TL
605 2006 Motorsiklet KANUNI 150 TREX Ankara 7.9.2026 16:30 500 TL
606 2025 Ford TRANSIT 350 ED VAN Muğla 7.9.2026 16:30 1.000 TL
607 2012 Fiat/Tofaş ALBEA SOLE 1.3 MULTIJET Yalova 7.9.2026 16:30 500 TL
608 2025 Motorsiklet FALCON CMAX-155 İzmir 7.9.2026 16:30 500 TL
609 2022 Motorsiklet RKS TNT202 İstanbul 7.9.2026 16:30 500 TL
610 2024 Ssangyong MUSSO GRAND D2. 2 4X2 AT PLATINUM PLUS Trabzon 7.9.2026 16:30 1.000 TL
611 2012 Ford FIESTA TITANIUM 5K 1.4I OV İstanbul 7.9.2026 16:30 500 TL
612 1993 Fiat/Tofaş SAHIN 5 VITES Amasya 7.9.2026 16:30 500 TL
613 2019 Renault SYMBOL JOY 0.9 TCE İstanbul 7.9.2026 16:30 500 TL
614 2009 Bmc LEVENT 100 CIFT SIRALI KAMYONET CSK İzmir 7.9.2026 16:30 500 TL
615 2001 Hyundai ACCENT 1.3 LX (Y) Edirne 7.9.2026 16:30 500 TL
616 2016 Motorsiklet MONDIAL SNAPPYX 100 Erzincan 7.9.2026 16:30 500 TL
617 2010 Geely CK ECHO 1.3 Erzurum 7.9.2026 16:30 1.000 TL
618 2006 Ford FUSION 1.4İ TDCİ COMFORT İzmir 7.9.2026 16:30 500 TL
619 2012 Peugeot 208 ACTIVE 1.4 HDI Kocaeli 7.9.2026 16:30 1.000 TL
620 2017 Audi A3 SEDAN 1.6 TDI Kayseri 8.9.2026 15:15 150.000 TL
621 2020 Peugeot 2008 ACTIVE 1.2 PURETECH Erzurum 8.9.2026 15:15 1.000 TL
622 2014 Mercedes E 180 1.6 İzmir 8.9.2026 15:15 100.500 TL
623 2023 Hyundai IONIQ 6 İstanbul 8.9.2026 15:15 1.310.000 TL
624 2009 Skoda SUPERB 1.4 TSI İstanbul 8.9.2026 15:15 412.000 TL
625 2012 Fiat/Tofaş ALBEA SOLE 1.4 Ankara 8.9.2026 15:15 69.500 TL
626 2017 Motorsiklet YZF R25 İstanbul 8.9.2026 15:30 1.000 TL
627 2024 Fiat/Tofaş EGEA SEDAN EASY 1.4 FIRE Ankara 8.9.2026 15:30 1.000 TL
628 2023 Dorse/Römork MAKSİMA XS YARI RÖMORK Antalya 8.9.2026 15:30 1.000 TL
629 2015 Dorse/Römork MAKSİMA YARI RÖMORK Samsun 8.9.2026 15:30 1.000 TL
630 2023 Skywell ET5 İzmir 8.9.2026 15:30 1.000 TL
631 2022 Jeep COMPAS 1.3 Samsun 8.9.2026 15:30 1.000 TL
632 2024 Kgmobılıty MUSSO GRAND D2.2 Erzurum 8.9.2026 15:30 1.000 TL
633 2014 Volkswagen GOLF VII 1.2 TSI İstanbul 8.9.2026 15:30 1.000 TL
634 2020 Honda CR-V 1.5T Ankara 8.9.2026 15:30 1.000 TL
635 2015 Volkswagen CADDY KOMBI 1.6 TDI İzmir 8.9.2026 15:30 1.000 TL
636 2011 Honda CR V 2.0 İstanbul 8.9.2026 15:30 1.000 TL
637 2017 Dorse/Römork CEYTECH CYT YARI RÖMORK Şırnak 8.9.2026 15:30 1.000 TL
638 2011 Renault MEGANE III HB EXPRESSION 1.6 Ankara 8.9.2026 15:30 1.000 TL
639 2023 Opel MOKKA 1.2 İstanbul 8.9.2026 15:30 1.000 TL
640 2023 Opel CORSA 1.2 Bursa 8.9.2026 15:30 1.000 TL
641 2019 Volkswagen TIGUAN 1.6 TDI Adana 8.9.2026 15:30 1.000 TL
642 2019 Renault MEGANE SEDAN 1.5 DCI Elazığ 8.9.2026 15:30 1.000 TL
643 2017 Nissan QASHQAI 1.6 DCI BLACK EDITION Bursa 8.9.2026 15:30 1.000 TL
644 2017 Renault MEGANE SEDAN TOUCH 1.5 DCI Trabzon 8.9.2026 15:30 1.000 TL
645 2023 Motorsiklet PULSAR N 250 İstanbul 8.9.2026 15:30 1.000 TL
646 2013 Fiat/Tofaş LINEA 1.3 MULTIJET Balıkesir 8.9.2026 15:30 1.000 TL
647 2023 Opel CROSSLAND 1.2 Aydın 8.9.2026 15:30 1.000 TL
648 2025 Renault CLIO 1.0 TCE İstanbul 8.9.2026 15:30 1.000 TL
649 1991 Fiat/Tofaş DOĞAN 1.6 Denizli 8.9.2026 15:30 1.000 TL
650 1997 Toyota COROLLA 1.6 Ankara 8.9.2026 15:30 1.000 TL
651 2015 Motorsiklet ZS 100 Muğla 8.9.2026 15:30 1.000 TL
652 2017 Renault MEGANE SEDAN 1.5 DCI İstanbul 8.9.2026 15:30 1.000 TL
653 2022 Motorsiklet 250 NK Edirne 8.9.2026 15:30 1.000 TL
654 2013 Honda CIVIC SEDAN 1.6 Sivas 8.9.2026 15:30 1.000 TL
655 2013 Mercedes SPRINTER SASI KMYONET 316 CDI Ankara 8.9.2026 15:30 1.000 TL
656 2018 Motorsiklet MT 25 ABS Ankara 8.9.2026 15:30 1.000 TL
657 2013 Ford TRANSIT MİNÜBÜS 16+1 Karabük 8.9.2026 15:30 1.000 TL
658 2008 Skoda ROOMSTER COMFORT 1.4 TDI Kocaeli 8.9.2026 15:30 1.000 TL
659 2016 Fiat/Tofaş EGEA LOUNGE 1.6 M.JET Adıyaman 8.9.2026 15:30 1.000 TL
660 2013 Alfa Romeo GIULIETTA 1.4 TB İzmir 8.9.2026 15:30 1.000 TL
661 1993 Ford TRANSIT KAMYONET Samsun 8.9.2026 15:30 1.000 TL
662 2023 Motorsiklet PULSAR RS 200 İstanbul 8.9.2026 15:30 1.000 TL
663 2018 Nissan MC QASHQAI 1.5 DCI SKY PACK İstanbul 8.9.2026 15:30 1.000 TL
664 2021 Opel CROSSLAND 1.2 Kocaeli 8.9.2026 15:30 1.000 TL
665 2024 Honda ACTİVA 125 Bayburt 8.9.2026 15:30 1.000 TL
666 2022 Opel MOKKA 1.2 130 Ankara 8.9.2026 15:30 1.000 TL
667 2024 Renault CLİO 1.0 TCE Muğla 8.9.2026 15:30 1.000 TL
668 2026 Renault CLİO 1.0 TCE EVOLUTION Rize 8.9.2026 15:30 1.000 TL
669 2026 Renault MEGANE SEDAN 1.3 TCE Samsun 8.9.2026 15:30 1.000 TL
670 2026 Fiat/Tofaş EGEA SEDAN 1.6 MJET EASY Adana 8.9.2026 15:30 1.000 TL
671 2025 Renault CLİO 1.0 TCE İzmir 8.9.2026 15:30 1.000 TL
672 2022 Fiat/Tofaş FIORINO COMBI 1.3 M.JET Afyonkarahisar 8.9.2026 15:30 1.000 TL
673 2014 Mercedes ACTROS 1844 LS Mardin 8.9.2026 15:30 1.000 TL
674 2021 Honda NSC 110 Ankara 8.9.2026 15:30 1.000 TL
675 2012 Renault KANGOO 1,5 DCİ Artvin 8.9.2026 15:30 1.000 TL
676 2024 Kia EV9 İstanbul 8.9.2026 15:30 1.000 TL
677 2017 Fiat/Tofaş LINEA POP 1.3 MULTIJET 95 Şehir Seç 8.9.2026 15:30 1.000 TL
678 2024 Motorsiklet TAKTAS VENUS 50 Samsun 8.9.2026 15:30 1.000 TL
679 2012 Volkswagen GOLF 1.6 TDI Manisa 8.9.2026 15:30 1.000 TL
680 2013 Renault CLIO HB 1.2 Yalova 8.9.2026 15:30 1.000 TL
681 2020 Honda ACTIVA S (NSC125) Şehir Seç 8.9.2026 15:30 1.000 TL
682 2016 Dacia SANDERO STEPWAY 1.5 DCI Giresun 8.9.2026 15:30 1.000 TL
683 2025 Motorsiklet AR10000 NEW Afyonkarahisar 8.9.2026 15:30 1.000 TL
684 2022 Peugeot BOXER VAN 2.2 BLUEHDI Şehir Seç 8.9.2026 15:30 1.000 TL
685 2024 Motorsiklet APS2 Balıkesir 8.9.2026 15:30 1.000 TL
686 2024 Motorsiklet PULSAR RS 200 Denizli 8.9.2026 15:30 1.000 TL
687 2022 Fiat/Tofaş DOBLO CARGO 1.6 M.JET İstanbul 8.9.2026 15:30 1.000 TL
688 2023 Motorsiklet VESPA SPRINT S 150 ABS Şehir Seç 8.9.2026 15:30 1.000 TL
689 2025 Volkswagen T-CROSS 1.0 TSI Diyarbakır 8.9.2026 15:30 1.000 TL
690 2025 Foton TUNLAND Aydın 8.9.2026 15:30 1.000 TL
691 2026 Isuzu NPR 3D KAMYON İstanbul 8.9.2026 15:30 1.000 TL
692 2026 Toyota CHR 1.8 HYBRID Kocaeli 8.9.2026 15:30 1.000 TL
693 1976 Jeep CJ6 Samsun 8.9.2026 15:30 1.000 TL
694 2008 Audi Q7 3.0 TDI Ankara 8.9.2026 15:30 1.000 TL
695 2001 Seat LEON 1.6 Mersin 8.9.2026 15:30 1.000 TL
696 1996 Renault R12 TOROS TSW Aksaray 8.9.2026 15:30 1.000 TL
697 2008 Audi A3 SPORTBACK 1.6 İstanbul 8.9.2026 15:30 1.000 TL
698 2018 Honda GLR 125 Ankara 8.9.2026 15:30 1.000 TL
699 2009 Peugeot PARTNER 1.6 Şanlıurfa 8.9.2026 15:30 1.000 TL
700 2025 Volkswagen CADDY 2,0 TDİ Malatya 8.9.2026 15:30 1.000 TL
701 2011 Audi A4 1.8 TFSI İstanbul 8.9.2026 15:30 1.000 TL
702 2021 Renault CLIO JOY 1.0 SCE 65 Ankara 8.9.2026 15:30 1.000 TL
703 2012 Karsan J10 12+1 MİNİBÜS Bursa 8.9.2026 15:30 1.000 TL
704 2012 Motorsiklet KLX 250 Bursa 8.9.2026 15:30 1.000 TL
705 2018 Mercedes KAMYON AROCS 4145 Mersin 8.9.2026 15:30 1.000 TL
706 2010 Fiat/Tofaş G.PUNTO 1.4 FIRE DYNAMIC Bursa 8.9.2026 15:30 1.000 TL
707 2010 Mercedes ML 320 CDI Ordu 8.9.2026 15:30 1.000 TL
708 2015 Honda PCX 125 İstanbul 8.9.2026 15:30 1.000 TL
709 2026 Fiat/Tofaş EGEA SEDAN EASY 1.6 M.JET Aydın 8.9.2026 15:30 1.000 TL
710 2024 Motorsiklet 125 DRİFT L Denizli 8.9.2026 15:30 1.000 TL
711 2009 Fiat/Tofaş DOBLO 1.4 ACTUAL Tokat 8.9.2026 15:30 1.000 TL
712 2016 Ford FOCUS 1.6 Tİ-VCT 125 Diyarbakır 8.9.2026 15:30 1.000 TL
713 2020 Motorsiklet MT-25 İzmir 8.9.2026 15:30 1.000 TL
714 2004 Volkswagen GOLF 1,6 FSI COMFORT Çorum 8.9.2026 15:30 1.000 TL
715 2016 Isuzu N-WIDE LONG KAMYONET Kayseri 8.9.2026 15:30 1.000 TL
716 2005 Opel VIVARO 1.9 Çorum 8.9.2026 15:30 1.000 TL
717 2013 Mercedes SPRINTER SASI KMYONET 316 CDI Ankara 8.9.2026 15:30 1.000 TL
718 2001 Volkswagen POLO 1.4 TRENDLINE Antalya 8.9.2026 15:30 1.000 TL
719 2026 Opel CORSA 1.2 HYBRID İzmir 8.9.2026 15:30 1.000 TL
720 2024 Fiat/Tofaş DOBLO CARGO 1,5 Antalya 8.9.2026 15:30 1.000 TL
721 2025 Renault CEKICI T 480 Bursa 8.9.2026 15:30 1.000 TL
722 2026 Skoda OCTAVIA 1,5 Balıkesir 8.9.2026 15:30 1.000 TL
723 2025 Motorsiklet ABUSH CG 50 İstanbul 8.9.2026 15:30 1.000 TL
724 2015 Mercedes SPRINTER 316 CDI AMBULANS İstanbul 8.9.2026 15:30 1.000 TL
725 2011 Ford FIESTA TITANIUM 5K 1.4i OV İstanbul 8.9.2026 15:30 1.000 TL
726 2008 Ford FIESTA COOL İstanbul 8.9.2026 15:30 1.000 TL
727 2017 Opel CORSA 1.4 90 Sakarya 8.9.2026 15:30 1.000 TL
728 1993 Fiat/Tofaş TEMPRA SX Şehir Seç 8.9.2026 15:30 1.000 TL
729 2024 Motorsiklet NMAX 125 İzmir 8.9.2026 15:30 1.000 TL
730 2022 Citroen C3 AIRCROSS 1.2 PURETECH 130 Bursa 8.9.2026 15:30 1.000 TL
731 2020 Hyundai KONA 1.6 CRDI DCT Trabzon 8.9.2026 15:30 1.000 TL
732 2012 Fiat/Tofaş ALBEA SOLE 1.3 MULTIJET Şehir Seç 8.9.2026 15:30 1.000 TL
733 2022 Motorsiklet PULSAR RS 200 Ankara 8.9.2026 15:30 1.000 TL
734 2025 Togg T10X Şehir Seç 8.9.2026 15:30 1.000 TL
735 2016 Bmw 118i HB 1.5 Trabzon 8.9.2026 15:30 1.000 TL
736 2024 Honda PCX 125 İstanbul 8.9.2026 15:30 1.000 TL
737 2017 Bmw 118i HB 1.5 Muğla 8.9.2026 15:30 1.000 TL
738 2015 Mercedes VITO TOURER İstanbul 8.9.2026 15:30 1.000 TL
739 2012 Volkswagen JETTA 1.6 TDI TRENDLINE Şehir Seç 8.9.2026 15:30 1.000 TL
740 2017 Ford TOURNEO COURIER 1,6 TDCİ Samsun 8.9.2026 15:30 1.000 TL
741 2017 Fiat/Tofaş EGEA 1,6 E-Torq Balıkesir 8.9.2026 15:30 1.000 TL
742 2025 Volkswagen CADDY 2.0 TDI Adıyaman 8.9.2026 15:30 1.000 TL
743 2024 Dorse/Römork TANKER Şırnak 8.9.2026 15:30 1.000 TL
744 2023 Peugeot XP 400 ALLURE İstanbul 8.9.2026 15:30 1.000 TL
745 2021 Motorsiklet RX3İ EVO Bursa 8.9.2026 15:30 1.000 TL
746 2023 Motorsiklet 450 SR Antalya 8.9.2026 15:30 1.000 TL
747 1989 Renault 12 TOROS Van 8.9.2026 15:30 1.000 TL
748 2025 Byd TANG 379KW Zonguldak 8.9.2026 15:30 1.000 TL
749 2006 Opel ASTRA HB 1.6i ENJOY Kocaeli 8.9.2026 15:30 1.000 TL
750 2000 Mitsubishi L200 CIFT KABIN KAMYONET Mersin 8.9.2026 15:30 1.000 TL
751 2021 Honda DIO 110 Denizli 8.9.2026 15:30 1.000 TL
752 2022 Fiat/Tofaş EGEA SEDAN EASY 1.6 M.JET Samsun 8.9.2026 15:30 1.000 TL
753 1997 Ford KA 1.3 3 KAPI Adana 8.9.2026 15:30 1.000 TL
754 2023 Citroen C4 1.2 Manisa 8.9.2026 15:30 1.000 TL
755 2022 Motorsiklet FRECCIA 150 Kayseri 8.9.2026 15:30 1.000 TL
756 2018 Seat LEON 1.2 TSI 110 DSG Bursa 8.9.2026 15:30 1.000 TL
757 1993 Fiat/Tofaş TEMPRA SX 1.6 Eskişehir 8.9.2026 15:30 1.000 TL
758 2024 Motorsiklet RAYZR İzmir 8.9.2026 15:30 1.000 TL
759 2015 Dacia SANDERO 1.5 DCI Şehir Seç 8.9.2026 15:30 1.000 TL
760 2025 Ford TRANSİT İstanbul 8.9.2026 15:30 1.000 TL
761 2013 Seat LEON 1.2 TSI İzmir 8.9.2026 15:30 1.000 TL
762 2012 Renault FLUENCE 1.5 DCI İstanbul 8.9.2026 15:30 1.000 TL
763 2006 Mercedes SPRINTER 213 CDI 14+1 Konya 8.9.2026 15:30 1.000 TL
764 2013 Motorsiklet Mv Agusta F3 675 İstanbul 8.9.2026 15:30 TL
765 2015 Nissan QASHQAI 1.6 DCI SKY PACK X-TRONIC Şehir Seç 8.9.2026 15:30 1.000 TL
766 2017 Volkswagen PASSAT 1.6 TDI BMT TRENDLINE Kayseri 8.9.2026 15:30 1.000 TL
767 2020 Ford FOCUS TREND X 1.5 TDCİ İstanbul 8.9.2026 15:30 1.000 TL
768 2017 Volkswagen PASSAT 2.0 TDI BMT Ankara 8.9.2026 15:30 1.000 TL
769 2021 Renault CLIO 1,0 TCE Ankara 8.9.2026 15:30 1.000 TL
770 2025 Motorsiklet BOSS 50 İstanbul 8.9.2026 15:30 1.000 TL
771 2013 Renault CLIO HB TOUCH 1.5 DCI Ankara 8.9.2026 15:30 1.000 TL
772 2024 Motorsiklet 250 NK Çanakkale 8.9.2026 15:30 1.000 TL
773 2017 Renault MEGANE 1,6 Tekirdağ 8.9.2026 15:30 1.000 TL
774 2001 Opel ASTRA 1.6i Şehir Seç 8.9.2026 15:30 1.000 TL
775 2021 Fiat/Tofaş EGEA CROSS 1.4 FIRE Iğdır 8.9.2026 15:30 1.000 TL
776 2024 Motorsiklet KRV 200 Ankara 8.9.2026 15:30 1.000 TL
777 2018 Renault MASTER 16+1 SERVIS ELEGANCE Kocaeli 8.9.2026 15:30 1.000 TL
778 1997 Ford MONDEO 2.0i GHIA Denizli 8.9.2026 15:30 1.000 TL
779 1994 Fiat/Tofaş ŞAHİN 1.6 Şehir Seç 8.9.2026 15:30 1.000 TL
780 2011 Ford FOCUS 1.6i HB Manisa 8.9.2026 15:30 1.000 TL
781 2013 Citroen C-ELYSEE 1.6 HDI 92 Denizli 8.9.2026 15:30 1.000 TL
782 2019 Fiat/Tofaş DOBLO CARGO MAXI 1.3 M.JET Bursa 8.9.2026 15:30 1.000 TL
783 2014 Opel CORSA 1.2i TWINPORT Aydın 8.9.2026 15:30 1.000 TL
784 2024 Motorsiklet 250 NK Tokat 8.9.2026 15:30 1.000 TL
785 2014 Iveco DAILY KAMYON 70C15 4350 L Antalya 8.9.2026 15:30 1.000 TL
786 2000 Fiat/Tofaş DOGAN 1.6 İE Trabzon 8.9.2026 15:30 1.000 TL
787 2020 Renault CLIO 0.9 TCE İstanbul 8.9.2026 15:30 1.000 TL
788 2022 Renault MEGANE SEDAN 1.3 TCE Ankara 8.9.2026 15:30 1.000 TL
789 2013 Volkswagen GOLF 1.6 TDI İstanbul 8.9.2026 15:30 1.000 TL
790 2011 Renault PREMIUM 460.19 T 4x2 Antalya 8.9.2026 15:30 1.000 TL
791 2025 Kgmobılıty MUSSO GRAND D2.2 4x2 AT Afyonkarahisar 8.9.2026 15:30 1.000 TL
792 1995 Renault 19 EUROPA 1.6 Şehir Seç 8.9.2026 15:30 1.000 TL
793 2015 Peugeot 301 1.6 HDI Şehir Seç 8.9.2026 15:30 1.000 TL
794 1995 Isuzu NPR 595 Kocaeli 8.9.2026 15:30 1.000 TL
795 1995 Fiat/Tofaş TEMPRA S 1.6 Şehir Seç 8.9.2026 15:30 1.000 TL
796 1992 Renault L 422 BROADWAY Kayseri 8.9.2026 15:30 1.000 TL
797 1999 Honda VT 750 C2 SHADOW Şehir Seç 8.9.2026 15:30 1.000 TL
798 2021 Renault CLIO 1.0 TCE X-TRONIC 90 İzmir 8.9.2026 15:30 1.000 TL
799 2025 Otokar ATLAS (11T) UZUN SASI 4X2 6 KLIMA İzmir 8.9.2026 15:30 1.000 TL
800 2022 Kia CEED HB 1.0 120 MHEV DCT Antalya 8.9.2026 15:30 1.000 TL
801 2023 Renault MEGANE SEDAN 1.3 TCE 140 İzmir 8.9.2026 15:30 1.000 TL
802 2016 Renault SYMBOL 1.5 DCİ 90 Şanlıurfa 8.9.2026 15:30 1.000 TL
803 2022 Opel CORSA 1.2 Antalya 8.9.2026 15:30 1.000 TL
804 2022 Opel CORSA 1.2 Antalya 8.9.2026 15:30 1.000 TL
805 2024 Motorsiklet RZ250S İstanbul 8.9.2026 15:30 1.000 TL
806 2000 Renault CLIO 1.6 RXT Bursa 8.9.2026 15:30 1.000 TL
807 2014 Peugeot 301 1.6 HDI Ankara 8.9.2026 15:30 1.000 TL
808 2024 Motorsiklet 250 SR Şehir Seç 8.9.2026 15:30 1.000 TL
809 2012 Renault KANGOO MULTIX AUTHENTIQUE 1.5 DCI (85) Gaziantep 8.9.2026 15:30 1.000 TL
810 1996 Mercedes E 300 D Şehir Seç 8.9.2026 15:30 1.000 TL
811 2004 Citroen XSARA 1.4 HDI Eskişehir 8.9.2026 15:30 1.000 TL
812 2004 Volkswagen POLO 1.4 BASICLINE Ankara 8.9.2026 15:30 1.000 TL
813 1997 Renault 19 EUROPA 1.4 Muğla 8.9.2026 15:30 1.000 TL
814 2026 Motorsiklet VSM Afyonkarahisar 8.9.2026 15:30 1.000 TL
815 1994 Fiat/Tofaş ŞAHİN 1.6 Malatya 8.9.2026 15:30 1.000 TL
816 2021 Toyota COROLLA 1.5 Antalya 8.9.2026 15:30 1.000 TL
817 2023 Ford TRANSİT 410L AMBULANS Adıyaman 8.9.2026 15:30 1.000 TL
818 2004 Opel ASTRA 1.4 NB Zonguldak 8.9.2026 15:30 1.000 TL
819 2025 Honda DIO 110 İstanbul 8.9.2026 15:30 1.000 TL
820 1993 Honda CIVIC 1.6 Şehir Seç 8.9.2026 15:30 1.000 TL
821 2004 Honda CIVIC 1.6 Şehir Seç 8.9.2026 15:30 1.000 TL
822 2012 Bmw Z4 28i SDRIVE Ankara 8.9.2026 15:30 1.000 TL
823 2015 Volvo S60 1.6 Eskişehir 8.9.2026 15:30 1.000 TL
824 2003 Mercedes E 220 CDI Antalya 8.9.2026 15:30 1.000 TL
825 2006 Ford TRANSIT CONNECT 1,8 TDCİ Ankara 8.9.2026 15:30 1.000 TL
826 2012 Volkswagen GOLF 1.4 TSI TRENDLINE Antalya 8.9.2026 15:30 1.000 TL
827 2017 Bmw 520İ Ankara 8.9.2026 15:30 1.000 TL
828 1996 Renault R19 EUROPA 1,4 RN Antalya 8.9.2026 15:30 1.000 TL
829 2016 Citroen C4 CACTUS 1.6 E-HDI Mersin 8.9.2026 15:30 1.000 TL
830 2009 Volkswagen CADDY KOMBI 1.9 TDI Adana 8.9.2026 15:30 1.000 TL
831 2019 Renault MEGANE SEDAN 1.5 BLUEDCI Gaziantep 8.9.2026 15:30 1.000 TL
832 2024 Honda PCX 125 İstanbul 8.9.2026 15:30 1.000 TL
833 2016 Audi Q3 1.4 TFSI Hatay 8.9.2026 15:30 1.000 TL
834 2013 Volkswagen JETTA 1.4 TSI (122) TIPTRONIC Erzurum 8.9.2026 15:30 1.000 TL
835 1999 Renault R9 BROADWAY 1.4 RN Konya 8.9.2026 15:30 1.000 TL
836 2012 Hyundai ACCENT BLUE 1.6 CRDI Çorum 8.9.2026 15:30 1.000 TL
837 2023 Peugeot 508 1.5 BLUEHDI 130 Hatay 8.9.2026 15:30 1.000 TL
838 2024 Chery TIGGO 7 PRO Van 8.9.2026 15:30 1.000 TL
839 2015 Hyundai i30 1.6 GDI DCT Eskişehir 8.9.2026 15:30 1.000 TL
840 2014 Honda CBR 250 R Ankara 8.9.2026 15:30 1.000 TL
841 2024 Honda DIO 110 Kocaeli 8.9.2026 15:30 1.000 TL
842 2025 Motorsiklet 250 SR Antalya 8.9.2026 15:30 1.000 TL
843 2004 Suzuki GSXR 750 Şehir Seç 8.9.2026 15:30 1.000 TL
844 1996 Fiat/Tofaş KARTAL SLX Karaman 8.9.2026 15:30 1.000 TL
845 2012 Skoda FABIA 1.2 Bolu 8.9.2026 15:30 1.000 TL
846 2025 Citroen C4 X 1.2 PURETECH Niğde 8.9.2026 15:30 1.000 TL
847 2019 Peugeot 3008 1.5 BLUEHDI Şanlıurfa 8.9.2026 15:30 1.000 TL
848 2024 Peugeot e-2008 Kayseri 8.9.2026 15:30 1.000 TL
849 2001 Renault CLIO SEDAN 1.4 RNA Balıkesir 8.9.2026 15:30 1.000 TL
850 2017 Audi A6 2.0 TDI Şanlıurfa 8.9.2026 15:30 1.000 TL
851 1989 Renault 11 FLASH Şehir Seç 8.9.2026 15:30 TL
852 2024 Togg T10X V2 RWD UZUN MENZIL 160KW İzmir 8.9.2026 15:30 1.000 TL
853 2017 Ford FOCUS III MCA 1.6 TDCI Niğde 8.9.2026 15:30 1.000 TL
854 2016 Fiat/Tofaş DOBLO COMBI 1.6 M.JET Şanlıurfa 8.9.2026 15:30 1.000 TL
855 2024 Jaecoo JAECOO 7 1.6 İzmir 8.9.2026 16:30 3.500 TL
856 2020 Skoda SCALA 1,6 TDİ Manisa 8.9.2026 16:30 500 TL
857 2013 Renault MASTER MİNÜBÜS 16+1 Denizli 8.9.2026 16:30 1.000 TL
858 2017 Ford TOURNEO CONNECT 1,5 TDCİ Kayseri 8.9.2026 16:30 1.000 TL
859 2014 Volkswagen CC 1.4 TSI Konya 8.9.2026 16:30 1.000 TL
860 2026 Peugeot 3008 1,2 Kayseri 8.9.2026 16:30 2.500 TL
861 2017 Bmw 520İ Elazığ 8.9.2026 16:30 502.000 TL
862 2023 Motorsiklet GRACE 202 Muğla 8.9.2026 16:30 1.000 TL
863 2014 Toyota COROLLA 1.6 Uşak 8.9.2026 16:30 1.000 TL
864 1995 Renault R9 BRODWAY 1,4 GTE Aksaray 8.9.2026 16:30 1.000 TL
865 2018 Renault SYMBOL 1,5 DCİ Şanlıurfa 8.9.2026 16:30 5.000 TL
866 1997 Fiat/Tofaş TIPO 1.6 SX Bursa 8.9.2026 16:30 1.000 TL
867 1996 Toyota COROLLA 1.3 XE Manisa 8.9.2026 16:30 5.000 TL
868 2001 Honda CIVIC 1.6 ES Bursa 8.9.2026 16:30 1.000 TL
869 2020 Hyundai KONA 1.0 T-GDI Tokat 8.9.2026 16:30 1.000 TL
870 2026 Motorsiklet PULSAR NS 125 Bursa 8.9.2026 16:30 1.000 TL
871 2015 Opel ASTRA 1.6 Amasya 8.9.2026 16:30 1.000 TL
872 2018 Nissan MC QASHQAI 1.6 DCI X-TRONIC TEKNA İstanbul 8.9.2026 16:30 5.000 TL
873 2023 Skywell ET5 LONG RANGE LEGEND 150 KW ELEKTRIKLI Ankara 8.9.2026 16:30 115.000 TL
874 2015 Renault SYMBOL JOY 1.5 DCI 90 Bursa 8.9.2026 16:30 1.000 TL
875 2000 Ford FOCUS 1.6i AMBIENTE HB OV Ankara 8.9.2026 16:30 5.500 TL
876 2023 Fiat/Tofaş DOBLO CARGO MAXI 1.5 100 BLUEHDI Ankara 8.9.2026 16:30 215.000 TL
877 2017 Nissan JUKE 1.6 SPECIAL EDITION CVT İstanbul 8.9.2026 16:30 69.000 TL
878 2020 Motorsiklet ARORA AR 50-50 KASIRGA Giresun 8.9.2026 16:30 500 TL
879 2023 Motorsiklet ARORA SK 250 K Hatay 8.9.2026 16:30 500 TL
880 2013 Motorsiklet HONDA SPACY 110 Ankara 8.9.2026 16:30 500 TL
881 2023 Iveco DAILY KAMYON 70 C 16 İstanbul 8.9.2026 16:30 500 TL
882 1992 Fiat/Tofaş KARTAL 1.6 Ankara 8.9.2026 16:30 1.000 TL
883 2026 Motorsiklet KUBA NEWCITY 50 Kocaeli 8.9.2026 16:30 500 TL
884 2023 Motorsiklet FALCON MARTINI 50 Mersin 8.9.2026 16:30 500 TL
885 2024 Motorsiklet YUKI DUTY 125 Bursa 8.9.2026 16:30 500 TL
886 2023 Motorsiklet KUBA PESARO 50 X Edirne 8.9.2026 16:30 500 TL
887 1992 Fiat/Tofaş DOGAN 1.6 Bartın 8.9.2026 16:30 500 TL
888 2019 Motorsiklet MONDIAL MH DRIFT Düzce 8.9.2026 16:30 500 TL
889 1996 Renault 19 EUROPA 1.6 HB Zonguldak 8.9.2026 16:30 500 TL
890 2000 Volkswagen POLO CLASSIC 1.6 COMFORTLINE Karabük 8.9.2026 16:30 1.000 TL
891 2008 Ford FIESTA 1.4 TDCi COMFORT Antalya 8.9.2026 16:30 1.000 TL
892 2009 Ford T. CONNECT KOMBI K210S 1.8 TDCİ İzmir 8.9.2026 16:30 1.000 TL
893 2024 Motorsiklet 250 SR Kırklareli 8.9.2026 16:30 1.000 TL
894 2024 Motorsiklet 250 SR İstanbul 8.9.2026 16:30 1.000 TL
895 2019 Motorsiklet NMAX 155 İstanbul 8.9.2026 16:30 1.000 TL
896 1998 Fiat/Tofaş PALIO 1.6 16V HL Eskişehir 8.9.2026 16:30 1.000 TL
897 2021 Volkswagen TRANSPORTER İstanbul 9.9.2026 15:15 788.500 TL
898 2017 Volkswagen PASSAT 1.6 TDI BMT İstanbul 9.9.2026 15:15 924.000 TL
899 2024 Bmw 320i SEDAN 1.6 Tekirdağ 9.9.2026 15:15 2.101.500 TL
900 2022 Renault CLIO JOY 1.0 TCE İstanbul 9.9.2026 15:15 1.000 TL
901 2024 Mercedes SPRINTER PANELVAN 417 CDI Ankara 9.9.2026 15:15 101.000 TL
902 2020 Peugeot 2008 1.5 BLUEHDI Antalya 9.9.2026 15:15 680.800 TL
903 2009 Ford FOCUS 1.6 TDCi TREND Konya 9.9.2026 15:30 1.000 TL
904 2023 Motorsiklet MASTER 50 Antalya 9.9.2026 15:30 1.000 TL
905 1991 Renault 9 GTE BROADWAY Denizli 9.9.2026 15:30 1.000 TL
906 2012 Renault FLUENCE EXTREME EDITION 1.5 DCI Adana 9.9.2026 15:30 1.000 TL
907 1996 Renault BROADWAY 1.4 Şehir Seç 9.9.2026 15:30 1.000 TL
908 2013 Opel CORSA 1.2 Şehir Seç 9.9.2026 15:30 1.000 TL
909 2022 Motorsiklet DOMINAR D 250 Adana 9.9.2026 15:30 1.000 TL
910 2017 Motorsiklet PULSAR NS160 Adana 9.9.2026 15:30 1.000 TL
911 1987 Renault BROADWAY L423 Mersin 9.9.2026 15:30 1.000 TL
912 1994 Mercedes C 180 Şehir Seç 9.9.2026 15:30 1.000 TL
913 2006 Renault MEGANEII SEDAN A.TIQUE 1.5 DCI Şehir Seç 9.9.2026 15:30 1.000 TL
914 2007 Ford TRANSIT CONNECT K210 S Bursa 9.9.2026 15:30 1.000 TL
915 2014 Volkswagen CADDY COMBI 1.6 TDI Şehir Seç 9.9.2026 15:30 1.000 TL
916 2010 Volkswagen T.PORTER CITYVAN 2.0 TDI İzmir 9.9.2026 15:30 1.000 TL
917 2024 Honda ACTIVA 125 Ankara 9.9.2026 15:30 1.000 TL
918 2023 Motorsiklet NEWLIGHT 125 PRO Şehir Seç 9.9.2026 15:30 1.000 TL
919 2010 Renault FLUENCE 1.5 DCI PRIVILEGE Trabzon 9.9.2026 15:30 1.000 TL
920 2004 Opel VIVARO 1.9 DTI YARI CAMLI VAN İzmir 9.9.2026 15:30 1.000 TL
921 2022 Renault EXPRESS COMBI JOY 1.5 BLUEDCI Şanlıurfa 9.9.2026 15:30 1.000 TL
922 2026 Ford TRANSIT COURIER VAN 1.0 P İstanbul 9.9.2026 15:30 1.000 TL
923 2013 Volvo S60 1.6 DRIVE Elazığ 9.9.2026 15:30 1.000 TL
924 2017 Hyundai H100 2.5 STANDART KABIN KAMYONET Mersin 9.9.2026 15:30 1.000 TL
925 1996 Fiat/Tofaş UNO S Sakarya 9.9.2026 15:30 1.000 TL
926 2014 Peugeot BOXER VAN 2.2 HDI Konya 9.9.2026 15:30 1.000 TL
927 2023 Peugeot 308 GT 1.2 PURETECH Gaziantep 9.9.2026 15:30 1.000 TL
928 2023 Jeep AVENGER ELECTRIC İstanbul 9.9.2026 15:30 1.000 TL
929 2024 Motorsiklet XMAX 250 Antalya 9.9.2026 15:30 1.000 TL
930 2016 Volkswagen PASSAT 1.6 TDI BMT İstanbul 9.9.2026 15:30 1.000 TL
931 1999 Ford TRANSIT MINIBUS T 15 Antalya 9.9.2026 15:30 1.000 TL
932 2008 Renault GRAND SCENIC 1.5 DCI Denizli 9.9.2026 15:30 1.000 TL
933 2022 Volkswagen T-ROC 1.5 TSI 150 DSG İstanbul 9.9.2026 15:30 1.000 TL
934 2009 Temsa PRESTIJ CITY Kocaeli 9.9.2026 15:30 1.000 TL
935 2025 Motorsiklet RS6 125 Antalya 9.9.2026 15:30 1.000 TL
936 2011 Audi A6 2.0 TDI (170) MULTITRONIC Kayseri 9.9.2026 15:30 1.000 TL
937 2020 Honda CİVİC 1.6 125 Ordu 9.9.2026 15:30 1.000 TL
938 2009 Fiat/Tofaş PUNTO 1.3 MULTIJET 75 Zonguldak 9.9.2026 15:30 1.000 TL
939 2001 Honda CİVİC 1.6 120 Konya 9.9.2026 15:30 1.000 TL
940 2004 Peugeot PARTNER 1.9D Konya 9.9.2026 15:30 1.000 TL
941 2001 Ford FOCUS 1.6i GHIA SEDAN Ankara 9.9.2026 15:30 1.000 TL
942 2017 Renault CLİO 1.5 DCİ SPORT TOURER 90 Ankara 9.9.2026 15:30 1.000 TL
943 2012 Peugeot 301 ALLURE 1.6 HDI 92 Çorum 9.9.2026 15:30 1.000 TL
944 2016 Volkswagen GOLF 1.4 TSİ BMT 125 DSG Giresun 9.9.2026 15:30 1.000 TL
945 2020 Renault CLIO 0.9 TCE 90 Adana 9.9.2026 15:30 1.000 TL
946 2005 Peugeot 206 X-LINE 1.4 HDI İstanbul 9.9.2026 15:30 1.000 TL
947 1994 Fiat/Tofaş DOGAN SLX 1.6 Adıyaman 9.9.2026 15:30 1.000 TL
948 2015 Skoda OCTAVIA 1,2 TSİ Şehir Seç 9.9.2026 15:30 1.000 TL
949 2013 Renault FLUENCE 1.5 DCI Diyarbakır 9.9.2026 15:30 1.000 TL
950 2017 Dorse/Römork AYDENİZ DORSE 3 DİNGİL DAM. Van 9.9.2026 15:30 1.000 TL
951 2019 Honda SCR 110 Balıkesir 9.9.2026 15:30 1.000 TL
952 2007 Seat LEON SPORT UP 1.6 Şehir Seç 9.9.2026 15:30 1.000 TL
953 2015 Ford KAMYON CARGO 3238S 8x2 Diyarbakır 9.9.2026 15:30 1.000 TL
954 2022 Dorse/Römork MAXIMA YARI RÖMORK İzmir 9.9.2026 15:30 1.000 TL
955 2023 Fiat/Tofaş DOBLO CARGO 1.5 BLUEDCI Bursa 9.9.2026 15:30 1.000 TL
956 2012 Volkswagen TRANSPORTER 2.0 TDI Muğla 9.9.2026 15:30 1.000 TL
957 2005 Hyundai ACCENT 1.3 ADMIRE Şehir Seç 9.9.2026 15:30 1.000 TL
958 2005 Fiat/Tofaş DOBLO COMBI 1.3 M.JET Şehir Seç 9.9.2026 15:30 1.000 TL
959 2001 Fiat/Tofaş BRAVA 1.6 Bursa 9.9.2026 15:30 1.000 TL
960 2009 Honda CIVIC 1.6 Çorum 9.9.2026 15:30 1.000 TL
961 2009 Dacia LOGAN MCV AMBIANCE 1.5 DCI Şehir Seç 9.9.2026 15:30 1.000 TL
962 2011 Ford TRANSIT 430 ED Şehir Seç 9.9.2026 15:30 1.000 TL
963 2013 Volkswagen JETTA 1.4 TSI Şehir Seç 9.9.2026 15:30 1.000 TL
964 2022 Motorsiklet CARGO9800 İzmir 9.9.2026 15:30 1.000 TL
965 1996 Skoda AO2 PICK UP Konya 9.9.2026 15:30 1.000 TL
966 1995 Fiat/Tofaş SAHIN 1.6 Niğde 9.9.2026 15:30 1.000 TL
967 2001 Seat TOLEDO SIGNO 1.6 Konya 9.9.2026 15:30 1.000 TL
968 2005 Daihatsu SİRİON 1.3 Çanakkale 9.9.2026 15:30 1.000 TL
969 2004 Renault CLIO SYMBOL 1.4 EXP.. Amasya 9.9.2026 15:30 1.000 TL
970 2014 Dacia DUSTER 1.5 DCI 110 4X4 Ankara 9.9.2026 15:30 1.000 TL
971 2012 Renault MEGANE III HB EXTREME 1.5 DCI Adıyaman 9.9.2026 15:30 1.000 TL
972 2012 Volkswagen JETTA 1.6 TDI COMFORTLINE Antalya 9.9.2026 15:30 1.000 TL
973 2020 Renault CLIO JOY 1.0 SCE Kocaeli 9.9.2026 15:30 1.000 TL
974 2012 Nissan MICRA 1.2 Ankara 9.9.2026 15:30 1.000 TL
975 2010 Fiat/Tofaş ALBEA SOLE 1.3 MULTIJET PREM. İstanbul 9.9.2026 15:30 1.000 TL
976 2021 Honda FORZA NSS250A İzmir 9.9.2026 15:30 1.000 TL
977 2014 Bmw 320i ED Uşak 9.9.2026 15:30 1.000 TL
978 2015 Renault CLIO HB 1.2 İzmir 9.9.2026 15:30 1.000 TL
979 2013 Kia OPTIMA 1.7 Kocaeli 9.9.2026 15:30 1.000 TL
980 2012 Peugeot 508 ALLURE 1.6 e-HDI 115 Balıkesir 9.9.2026 15:30 1.000 TL
981 2022 Motorsiklet SPARK 50 Gaziantep 9.9.2026 15:30 1.000 TL
982 2014 Volkswagen GOLF VII 1.2 TSI BMT 105 TIPT.DSG Ankara 9.9.2026 15:30 1.000 TL
983 2018 Seat ATECA 1.4 ECOTSI ACT 150 DSG Tekirdağ 9.9.2026 15:30 1.000 TL
984 2024 Honda PCX 125 İzmir 9.9.2026 15:30 1.000 TL
985 2015 Renault MEGANE HB 1.5 DCI Hatay 9.9.2026 15:30 1.000 TL
986 2021 Bmw X2 SDRIVE 16d 1.5 Şehir Seç 9.9.2026 15:30 1.000 TL
987 2007 Opel ASTRA 1.4i Bursa 9.9.2026 15:30 1.000 TL
988 2006 Peugeot 206 FELINE 1.4 HDI Şehir Seç 9.9.2026 15:30 1.000 TL
989 2009 Volkswagen GOLF 1.6 MIDLINE TIPTRONIC Şehir Seç 9.9.2026 15:30 1.000 TL
990 2012 Volkswagen GOLF 1.6 Sakarya 9.9.2026 15:30 1.000 TL
991 2024 Motorsiklet RODOS 50 Malatya 9.9.2026 15:30 1.000 TL
992 2015 Fiat/Tofaş LINEA 1.3 MULTIJET İstanbul 9.9.2026 15:30 1.000 TL
993 2004 Hyundai STAREX 2.5 İstanbul 9.9.2026 15:30 1.000 TL
994 2024 Fiat/Tofaş DOBLO CARGO 1.5 BLUEHDI Konya 9.9.2026 15:30 1.000 TL
995 2018 Seat LEON 1.4 TSI 125 Adana 9.9.2026 15:30 1.000 TL
996 2023 Motorsiklet RAIDER 125 İstanbul 9.9.2026 15:30 1.000 TL
997 2023 Honda ACTIVA 125 Kocaeli 9.9.2026 15:30 1.000 TL
998 2007 Honda CIVIC SEDAN 1.6 Samsun 9.9.2026 15:30 1.000 TL
999 2011 Honda CIVIC SEDAN 1.6 ELEGANCE OV (Y) Bursa 9.9.2026 15:30 1.000 TL
1000 2025 Renault CLIO 1.0 TCE X-TRONIC 90 Mardin 9.9.2026 15:30 1.000 TL
1001 2012 Volkswagen POLO 1.4 COMFORTLINE TIPTRONIC DSG (85) Konya 9.9.2026 15:30 1.000 TL
1002 2003 Volkswagen PASSAT 1.9 TDI Ankara 9.9.2026 15:30 1.000 TL
1003 2021 Fiat/Tofaş DOBLO COMBI 1.6 M.JET 120 Bursa 9.9.2026 15:30 1.000 TL
1004 2021 Volkswagen POLO 1.0 TSI 95 DSG Adana 9.9.2026 15:30 1.000 TL
1005 2021 Fiat/Tofaş EGEA SEDAN 1.4 FIRE Antalya 9.9.2026 15:30 1.000 TL
1006 2022 Fiat/Tofaş EGEA SEDAN 1.6 M.JET Afyonkarahisar 9.9.2026 15:30 1.000 TL
1007 2021 Citroen C-ELYSEE 1,5 BLUEHDI İstanbul 9.9.2026 15:30 1.000 TL
1008 2022 Renault TAILANT 1,0 T Mardin 9.9.2026 15:30 1.000 TL
1009 2024 Opel CORSA 1.2 İzmir 9.9.2026 15:30 1.000 TL
1010 2021 Renault MEGANE SEDAN 1.3 TCE EDC 140 FAZ2 Tekirdağ 9.9.2026 15:30 1.000 TL
1011 2024 Motorsiklet KUBA TK03 Malatya 9.9.2026 15:30 1.000 TL
1012 2023 Motorsiklet KUBA EGE 50 Osmaniye 9.9.2026 15:30 1.000 TL
1013 2016 Bmw 520i SEDAN 1.6 (170) İstanbul 9.9.2026 15:30 1.000 TL
1014 2012 Volkswagen GOLF 1.6 TDI BMT 105 COMFORTLINE İstanbul 9.9.2026 15:30 1.000 TL
1015 2020 Motorsiklet KRAL YKR44 PION Şehir Seç 9.9.2026 15:30 1.000 TL
1016 2022 Motorsiklet 250 DUKE Gaziantep 9.9.2026 15:30 1.000 TL
1017 1998 Ford LCY UZUN ŞASİ Manisa 9.9.2026 15:30 1.000 TL
1018 2020 Motorsiklet MTN 250 Muğla 9.9.2026 15:30 1.000 TL
1019 2024 Motorsiklet MONDIAL SCOOTER FURY 110i Aydın 9.9.2026 15:30 1.000 TL
1020 2009 Ford TRANSIT KAMYONET Şanlıurfa 9.9.2026 15:30 1.000 TL
1021 2010 Renault MASTER VAN 2.5 İstanbul 9.9.2026 16:30 1.000 TL
1022 2010 Fiat/Tofaş DUCATO MINIBUS 2.3 M.JET (16+1) Bursa 9.9.2026 16:30 500 TL
1023 2004 Renault KANGOO 1.5 DCI Konya 9.9.2026 16:30 1.000 TL
1024 2005 Ford FOCUS 1.6 HB Erzincan 9.9.2026 16:30 65.000 TL
1025 2008 Peugeot 308 COMFORT 1.6 HDI İzmir 9.9.2026 16:30 1.000 TL
1026 2004 Fiat/Tofaş MAREA 1.6 LIBERTY Bursa 9.9.2026 16:30 1.000 TL
1027 2011 Ford FIESTA 1.4 TDCİ Samsun 9.9.2026 16:30 1.000 TL
1028 2023 Motorsiklet NINJA 650 İstanbul 9.9.2026 16:30 20.000 TL
1029 2026 Motorsiklet QUANTUM 50 Balıkesir 9.9.2026 16:30 1.000 TL
1030 2012 Honda CIVIC SEDAN 1.6i VTEC İstanbul 9.9.2026 16:30 500 TL
1031 2024 Peugeot BOXER 16+1 Ankara 10.9.2026 15:30 1.000 TL
1032 1997 Toyota COROLLA 1.6 XEi Adana 10.9.2026 15:30 1.000 TL
1033 2019 Skoda OCTAVIA 1.6 TDI CR 115 DSG Konya 10.9.2026 15:30 1.000 TL
1034 2018 Nissan MC QASHQAI 1.6 DCI X-TRONIC TEKNA Konya 10.9.2026 15:30 1.000 TL
1035 2012 Seat LEON 1.4 TSI (125) FR Şehir Seç 10.9.2026 15:30 1.000 TL
1036 2022 Honda CITY 4D 1.5 İzmir 10.9.2026 15:30 1.000 TL
1037 2018 Honda CB 250 R İstanbul 10.9.2026 15:30 1.000 TL
1038 2024 Motorsiklet 250 SR İstanbul 10.9.2026 15:30 1.000 TL
1039 2023 Motorsiklet MT 25 ABS İstanbul 10.9.2026 15:30 1.000 TL
1040 2019 Peugeot 301 ACTIVE 1.5 BLUEHDI Antalya 10.9.2026 15:30 1.000 TL
1041 2023 Mercedes EQE 350 4MATIC AMG İzmir 10.9.2026 15:30 1.000 TL
1042 2021 Toyota PROACE CITY CARGO 1.5 D Sakarya 10.9.2026 15:30 1.000 TL
1043 2023 Motorsiklet VIESTE 249 Şehir Seç 10.9.2026 15:30 1.000 TL
1044 2013 Fiat/Tofaş LINEA SEDAN 1.3 MULTIJET Konya 10.9.2026 15:30 1.000 TL
1045 2023 Motorsiklet KRAL RIGIL 125 Muğla 10.9.2026 15:30 1.000 TL
1046 2018 Motorsiklet CUP 100 SFC SNAPPY X Niğde 10.9.2026 15:30 1.000 TL
1047 2017 Bmw 318i SEDAN 1.5 Bursa 10.9.2026 15:30 1.000 TL
1048 2012 Fiat/Tofaş LINEA 1.3 MULTIJET Şehir Seç 10.9.2026 15:30 1.000 TL
1049 2004 Opel VECTRA 1.6 COMFORT Şanlıurfa 10.9.2026 15:30 1.000 TL
1050 2014 Peugeot 301 1,6 HDI İzmir 10.9.2026 15:30 1.000 TL
1051 2025 Opel CORSA 1.2 T Hatay 10.9.2026 15:30 1.000 TL
1052 2024 Byd SEAL U DM-i Şanlıurfa 10.9.2026 15:30 1.000 TL
1053 2013 Renault SYMBOL 1.5 DCI Balıkesir 10.9.2026 15:30 1.000 TL
1054 2023 Motorsiklet PULSAR F250 İstanbul 10.9.2026 15:30 1.000 TL
1055 2013 Opel CORSA 1.3 CDTi İzmir 10.9.2026 15:30 1.000 TL
1056 0 İstanbul 11.9.2026 15:30 1.000 TL
1057 2013 Opel ASTRA SEDAN 1.6 Antalya 11.9.2026 15:30 1.000 TL
1058 2015 Fiat/Tofaş PUNTO 1.4 Balıkesir 11.9.2026 15:30 1.000 TL
1059 2015 Honda CIVIC SEDAN 1.6 ELEGANCE Erzurum 11.9.2026 15:30 1.000 TL
1060 2023 Motorsiklet 250 NK İzmir 11.9.2026 15:30 1.000 TL
1061 2013 Ford TRANSIT 350ED TEK KABIN KAMYONET Osmaniye 11.9.2026 15:30 1.000 TL
1062 1992 Renault 9 GTE BROADWAY Antalya 11.9.2026 15:30 1.000 TL
1063 2023 Fiat/Tofaş EGEA CROSS 1.6 M.JET Karaman 11.9.2026 15:30 1.000 TL
1064 2013 Renault FLUENCE SEDAN 1.5 DCI Mardin 11.9.2026 15:30 1.000 TL
1065 2016 Volkswagen GOLF 1.6 TDI Konya 11.9.2026 15:30 1.000 TL
1066 1992 Renault R 1179 Manisa 11.9.2026 15:30 1.000 TL
1067 2023 Dacia DUSTER 1.5 BLUEDCI 115 Kars 11.9.2026 15:30 1.000 TL
1068 2001 Ford FOCUS 1.6i GHIA SEDAN Van 11.9.2026 15:30 1.000 TL
Deniz Uğurlu : 0532 6657413 - Abdullah Adsay : 0506 7521791 - Metin Oktay : 0532 6717940 -  WhatsApp Hattı: 0533 2028867
Banka Hesabımız
Copyright © 2003 , TAŞKIN  UĞURLU  Hasarlı Oto Tüm hakları saklıdır.